<?xml version="1.0" encoding="UTF-8" standalone="no" ?>
<gpx xmlns="http://www.topografix.com/GPX/1/1" xmlns:xsi="http://www.w3.org/2001/XMLSchema-instance" xsi:schemaLocation="http://www.topografix.com/GPX/1/1 http://www.topografix.com/GPX/1/1/gpx.xsd" version="1.1" creator="VisuGPX - https://www.visugpx.com">
  <metadata>
    <name>CORSE - Capu di a Veta - PEDESTRE - Aller-retour du camping &amp;quot;Bella Vista&amp;quot; à la croix des Autrichiens.</name>
    <desc><![CDATA[Sortie non balisée, non cairnée avoir un Gps et la trace]]></desc>
  </metadata>
  <wpt lat="42.53429" lon="8.75202">
    <ele>296</ele>
    <name><![CDATA[001]]></name>
  </wpt>
  <wpt lat="42.55181" lon="8.75568">
    <ele>17.189209</ele>
    <name><![CDATA[Camping Calvi]]></name>
    <desc><![CDATA[28-JUN-14 15:52:34]]></desc>
    <cmt><![CDATA[28-JUN-14 15:52:34]]></cmt>
  </wpt>
  <wpt lat="42.52932" lon="8.74386">
    <ele>697</ele>
    <name><![CDATA[croix de Belges]]></name>
    <desc><![CDATA[29-JUN-14 10:49:41]]></desc>
    <cmt><![CDATA[29-JUN-14 10:49:41]]></cmt>
  </wpt>
  <trk>
    <name><![CDATA[ACTIVE LOG 010]]></name>
    <trkseg>
      <trkpt lat="42.55172" lon="8.75566">
        <ele>29.93811</ele>
        <time>2014-06-29T06:58:13Z</time>
      </trkpt>
      <trkpt lat="42.55172" lon="8.75566">
        <ele>29.93811</ele>
        <time>2014-06-29T06:58:14Z</time>
      </trkpt>
      <trkpt lat="42.55172" lon="8.75566">
        <ele>29.93811</ele>
        <time>2014-06-29T06:58:15Z</time>
      </trkpt>
      <trkpt lat="42.55174" lon="8.75565">
        <ele>29.45752</ele>
        <time>2014-06-29T06:58:22Z</time>
      </trkpt>
      <trkpt lat="42.55186" lon="8.75576">
        <ele>28.976929</ele>
        <time>2014-06-29T06:58:37Z</time>
      </trkpt>
      <trkpt lat="42.55195" lon="8.75581">
        <ele>28.496216</ele>
        <time>2014-06-29T06:58:46Z</time>
      </trkpt>
      <trkpt lat="42.55197" lon="8.75582">
        <ele>28.496216</ele>
        <time>2014-06-29T06:58:48Z</time>
      </trkpt>
      <trkpt lat="42.55206" lon="8.75591">
        <ele>28.015503</ele>
        <time>2014-06-29T06:58:59Z</time>
      </trkpt>
      <trkpt lat="42.55216" lon="8.75599">
        <ele>27.054321</ele>
        <time>2014-06-29T06:59:09Z</time>
      </trkpt>
      <trkpt lat="42.5522" lon="8.75605">
        <ele>27.054321</ele>
        <time>2014-06-29T06:59:14Z</time>
      </trkpt>
      <trkpt lat="42.55221" lon="8.75613">
        <ele>26.092896</ele>
        <time>2014-06-29T06:59:20Z</time>
      </trkpt>
      <trkpt lat="42.55226" lon="8.75624">
        <ele>27.054321</ele>
        <time>2014-06-29T06:59:30Z</time>
      </trkpt>
      <trkpt lat="42.55231" lon="8.75633">
        <ele>26.573608</ele>
        <time>2014-06-29T06:59:39Z</time>
      </trkpt>
      <trkpt lat="42.55244" lon="8.75639">
        <ele>26.573608</ele>
        <time>2014-06-29T06:59:51Z</time>
      </trkpt>
      <trkpt lat="42.55245" lon="8.75646">
        <ele>25.612305</ele>
        <time>2014-06-29T06:59:57Z</time>
      </trkpt>
      <trkpt lat="42.55223" lon="8.75651">
        <ele>26.092896</ele>
        <time>2014-06-29T07:00:16Z</time>
      </trkpt>
      <trkpt lat="42.55199" lon="8.75654">
        <ele>26.092896</ele>
        <time>2014-06-29T07:00:37Z</time>
      </trkpt>
      <trkpt lat="42.55176" lon="8.75653">
        <ele>26.573608</ele>
        <time>2014-06-29T07:00:56Z</time>
      </trkpt>
      <trkpt lat="42.55153" lon="8.75656">
        <ele>28.015503</ele>
        <time>2014-06-29T07:01:15Z</time>
      </trkpt>
      <trkpt lat="42.55139" lon="8.75656">
        <ele>28.496216</ele>
        <time>2014-06-29T07:01:30Z</time>
      </trkpt>
      <trkpt lat="42.55134" lon="8.75654">
        <ele>28.015503</ele>
        <time>2014-06-29T07:01:35Z</time>
      </trkpt>
      <trkpt lat="42.55127" lon="8.75651">
        <ele>27.054321</ele>
        <time>2014-06-29T07:01:40Z</time>
      </trkpt>
      <trkpt lat="42.55121" lon="8.75654">
        <ele>26.573608</ele>
        <time>2014-06-29T07:01:46Z</time>
      </trkpt>
      <trkpt lat="42.55104" lon="8.75664">
        <ele>25.612305</ele>
        <time>2014-06-29T07:02:04Z</time>
      </trkpt>
      <trkpt lat="42.55085" lon="8.7569">
        <ele>25.612305</ele>
        <time>2014-06-29T07:02:26Z</time>
      </trkpt>
      <trkpt lat="42.55067" lon="8.7572">
        <ele>27.054321</ele>
        <time>2014-06-29T07:02:49Z</time>
      </trkpt>
      <trkpt lat="42.55051" lon="8.75745">
        <ele>29.93811</ele>
        <time>2014-06-29T07:03:09Z</time>
      </trkpt>
      <trkpt lat="42.55037" lon="8.75772">
        <ele>30.899536</ele>
        <time>2014-06-29T07:03:29Z</time>
      </trkpt>
      <trkpt lat="42.55025" lon="8.75798">
        <ele>31.860718</ele>
        <time>2014-06-29T07:03:48Z</time>
      </trkpt>
      <trkpt lat="42.55007" lon="8.75815">
        <ele>34.26416</ele>
        <time>2014-06-29T07:04:06Z</time>
      </trkpt>
      <trkpt lat="42.54992" lon="8.75817">
        <ele>32.822266</ele>
        <time>2014-06-29T07:04:20Z</time>
      </trkpt>
      <trkpt lat="42.54968" lon="8.75816">
        <ele>35.706055</ele>
        <time>2014-06-29T07:04:41Z</time>
      </trkpt>
      <trkpt lat="42.54945" lon="8.75811">
        <ele>34.744873</ele>
        <time>2014-06-29T07:05:01Z</time>
      </trkpt>
      <trkpt lat="42.54929" lon="8.75808">
        <ele>35.706055</ele>
        <time>2014-06-29T07:05:15Z</time>
      </trkpt>
      <trkpt lat="42.54907" lon="8.75805">
        <ele>36.186768</ele>
        <time>2014-06-29T07:05:33Z</time>
      </trkpt>
      <trkpt lat="42.54883" lon="8.75799">
        <ele>37.148071</ele>
        <time>2014-06-29T07:05:52Z</time>
      </trkpt>
      <trkpt lat="42.54862" lon="8.75798">
        <ele>38.590088</ele>
        <time>2014-06-29T07:06:09Z</time>
      </trkpt>
      <trkpt lat="42.54843" lon="8.75796">
        <ele>38.109375</ele>
        <time>2014-06-29T07:06:24Z</time>
      </trkpt>
      <trkpt lat="42.54839" lon="8.75795">
        <ele>38.109375</ele>
        <time>2014-06-29T07:06:28Z</time>
      </trkpt>
      <trkpt lat="42.54834" lon="8.75796">
        <ele>38.109375</ele>
        <time>2014-06-29T07:06:32Z</time>
      </trkpt>
      <trkpt lat="42.54831" lon="8.75797">
        <ele>38.590088</ele>
        <time>2014-06-29T07:06:34Z</time>
      </trkpt>
      <trkpt lat="42.54816" lon="8.758">
        <ele>38.590088</ele>
        <time>2014-06-29T07:06:47Z</time>
      </trkpt>
      <trkpt lat="42.54791" lon="8.75797">
        <ele>38.590088</ele>
        <time>2014-06-29T07:07:05Z</time>
      </trkpt>
      <trkpt lat="42.5476" lon="8.75797">
        <ele>40.512817</ele>
        <time>2014-06-29T07:07:28Z</time>
      </trkpt>
      <trkpt lat="42.54733" lon="8.75798">
        <ele>39.55127</ele>
        <time>2014-06-29T07:07:48Z</time>
      </trkpt>
      <trkpt lat="42.54703" lon="8.758">
        <ele>41.473999</ele>
        <time>2014-06-29T07:08:11Z</time>
      </trkpt>
      <trkpt lat="42.54674" lon="8.75807">
        <ele>43.396606</ele>
        <time>2014-06-29T07:08:34Z</time>
      </trkpt>
      <trkpt lat="42.54652" lon="8.75818">
        <ele>43.396606</ele>
        <time>2014-06-29T07:08:53Z</time>
      </trkpt>
      <trkpt lat="42.54625" lon="8.75811">
        <ele>45.319214</ele>
        <time>2014-06-29T07:09:14Z</time>
      </trkpt>
      <trkpt lat="42.54604" lon="8.75801">
        <ele>45.799927</ele>
        <time>2014-06-29T07:09:32Z</time>
      </trkpt>
      <trkpt lat="42.54586" lon="8.75788">
        <ele>47.241821</ele>
        <time>2014-06-29T07:09:48Z</time>
      </trkpt>
      <trkpt lat="42.54562" lon="8.75783">
        <ele>48.203369</ele>
        <time>2014-06-29T07:10:07Z</time>
      </trkpt>
      <trkpt lat="42.54535" lon="8.75784">
        <ele>47.722534</ele>
        <time>2014-06-29T07:10:27Z</time>
      </trkpt>
      <trkpt lat="42.54509" lon="8.75777">
        <ele>49.164551</ele>
        <time>2014-06-29T07:10:47Z</time>
      </trkpt>
      <trkpt lat="42.54486" lon="8.7577">
        <ele>50.606567</ele>
        <time>2014-06-29T07:11:05Z</time>
      </trkpt>
      <trkpt lat="42.54463" lon="8.75769">
        <ele>52.529175</ele>
        <time>2014-06-29T07:11:23Z</time>
      </trkpt>
      <trkpt lat="42.54439" lon="8.75772">
        <ele>53.009766</ele>
        <time>2014-06-29T07:11:42Z</time>
      </trkpt>
      <trkpt lat="42.5441" lon="8.75772">
        <ele>55.893799</ele>
        <time>2014-06-29T07:12:05Z</time>
      </trkpt>
      <trkpt lat="42.54391" lon="8.75766">
        <ele>56.374512</ele>
        <time>2014-06-29T07:12:22Z</time>
      </trkpt>
      <trkpt lat="42.54384" lon="8.75762">
        <ele>57.335815</ele>
        <time>2014-06-29T07:12:27Z</time>
      </trkpt>
      <trkpt lat="42.54357" lon="8.75757">
        <ele>59.258423</ele>
        <time>2014-06-29T07:12:48Z</time>
      </trkpt>
      <trkpt lat="42.54339" lon="8.75759">
        <ele>58.77771</ele>
        <time>2014-06-29T07:13:02Z</time>
      </trkpt>
      <trkpt lat="42.54328" lon="8.75741">
        <ele>59.739136</ele>
        <time>2014-06-29T07:13:16Z</time>
      </trkpt>
      <trkpt lat="42.54322" lon="8.75711">
        <ele>58.77771</ele>
        <time>2014-06-29T07:13:35Z</time>
      </trkpt>
      <trkpt lat="42.5432" lon="8.75706">
        <ele>58.297119</ele>
        <time>2014-06-29T07:13:39Z</time>
      </trkpt>
      <trkpt lat="42.54318" lon="8.75673">
        <ele>56.855103</ele>
        <time>2014-06-29T07:13:59Z</time>
      </trkpt>
      <trkpt lat="42.54325" lon="8.75644">
        <ele>57.816528</ele>
        <time>2014-06-29T07:14:17Z</time>
      </trkpt>
      <trkpt lat="42.54321" lon="8.75635">
        <ele>59.258423</ele>
        <time>2014-06-29T07:14:24Z</time>
      </trkpt>
      <trkpt lat="42.54302" lon="8.75623">
        <ele>63.103638</ele>
        <time>2014-06-29T07:14:43Z</time>
      </trkpt>
      <trkpt lat="42.54293" lon="8.75617">
        <ele>64.065063</ele>
        <time>2014-06-29T07:14:58Z</time>
      </trkpt>
      <trkpt lat="42.54279" lon="8.75604">
        <ele>66.948975</ele>
        <time>2014-06-29T07:15:14Z</time>
      </trkpt>
      <trkpt lat="42.54278" lon="8.75603">
        <ele>66.948975</ele>
        <time>2014-06-29T07:15:15Z</time>
      </trkpt>
      <trkpt lat="42.5426" lon="8.75593">
        <ele>70.313477</ele>
        <time>2014-06-29T07:15:34Z</time>
      </trkpt>
      <trkpt lat="42.54242" lon="8.7558">
        <ele>71.755493</ele>
        <time>2014-06-29T07:15:52Z</time>
      </trkpt>
      <trkpt lat="42.54216" lon="8.75561">
        <ele>75.120239</ele>
        <time>2014-06-29T07:16:13Z</time>
      </trkpt>
      <trkpt lat="42.54195" lon="8.75541">
        <ele>76.081421</ele>
        <time>2014-06-29T07:16:33Z</time>
      </trkpt>
      <trkpt lat="42.54174" lon="8.75526">
        <ele>78.965454</ele>
        <time>2014-06-29T07:16:52Z</time>
      </trkpt>
      <trkpt lat="42.54162" lon="8.75519">
        <ele>80.888184</ele>
        <time>2014-06-29T07:17:03Z</time>
      </trkpt>
      <trkpt lat="42.54158" lon="8.75518">
        <ele>81.849365</ele>
        <time>2014-06-29T07:17:06Z</time>
      </trkpt>
      <trkpt lat="42.54136" lon="8.75511">
        <ele>83.771973</ele>
        <time>2014-06-29T07:17:23Z</time>
      </trkpt>
      <trkpt lat="42.54131" lon="8.75511">
        <ele>83.771973</ele>
        <time>2014-06-29T07:17:27Z</time>
      </trkpt>
      <trkpt lat="42.54114" lon="8.75519">
        <ele>84.733398</ele>
        <time>2014-06-29T07:17:43Z</time>
      </trkpt>
      <trkpt lat="42.54104" lon="8.75532">
        <ele>85.69458</ele>
        <time>2014-06-29T07:17:54Z</time>
      </trkpt>
      <trkpt lat="42.5409" lon="8.75553">
        <ele>86.656006</ele>
        <time>2014-06-29T07:18:11Z</time>
      </trkpt>
      <trkpt lat="42.54089" lon="8.75555">
        <ele>87.136597</ele>
        <time>2014-06-29T07:18:24Z</time>
      </trkpt>
      <trkpt lat="42.54087" lon="8.75556">
        <ele>88.578735</ele>
        <time>2014-06-29T07:18:50Z</time>
      </trkpt>
      <trkpt lat="42.54084" lon="8.75557">
        <ele>88.098022</ele>
        <time>2014-06-29T07:19:05Z</time>
      </trkpt>
      <trkpt lat="42.54076" lon="8.75571">
        <ele>87.136597</ele>
        <time>2014-06-29T07:19:20Z</time>
      </trkpt>
      <trkpt lat="42.54065" lon="8.75593">
        <ele>84.252686</ele>
        <time>2014-06-29T07:19:38Z</time>
      </trkpt>
      <trkpt lat="42.54054" lon="8.75611">
        <ele>82.810791</ele>
        <time>2014-06-29T07:19:54Z</time>
      </trkpt>
      <trkpt lat="42.54048" lon="8.75631">
        <ele>85.69458</ele>
        <time>2014-06-29T07:20:07Z</time>
      </trkpt>
      <trkpt lat="42.54043" lon="8.75639">
        <ele>86.656006</ele>
        <time>2014-06-29T07:20:22Z</time>
      </trkpt>
      <trkpt lat="42.54029" lon="8.75638">
        <ele>87.136597</ele>
        <time>2014-06-29T07:20:36Z</time>
      </trkpt>
      <trkpt lat="42.54023" lon="8.75637">
        <ele>88.578735</ele>
        <time>2014-06-29T07:20:41Z</time>
      </trkpt>
      <trkpt lat="42.53998" lon="8.75632">
        <ele>91.462524</ele>
        <time>2014-06-29T07:21:02Z</time>
      </trkpt>
      <trkpt lat="42.53983" lon="8.75629">
        <ele>94.827148</ele>
        <time>2014-06-29T07:21:17Z</time>
      </trkpt>
      <trkpt lat="42.5397" lon="8.75628">
        <ele>96.749878</ele>
        <time>2014-06-29T07:21:30Z</time>
      </trkpt>
      <trkpt lat="42.53959" lon="8.75629">
        <ele>98.191895</ele>
        <time>2014-06-29T07:21:38Z</time>
      </trkpt>
      <trkpt lat="42.53946" lon="8.75622">
        <ele>99.633789</ele>
        <time>2014-06-29T07:21:51Z</time>
      </trkpt>
      <trkpt lat="42.53942" lon="8.75611">
        <ele>101.075684</ele>
        <time>2014-06-29T07:22:00Z</time>
      </trkpt>
      <trkpt lat="42.53942" lon="8.75614">
        <ele>100.114502</ele>
        <time>2014-06-29T07:22:03Z</time>
      </trkpt>
      <trkpt lat="42.53948" lon="8.75628">
        <ele>99.633789</ele>
        <time>2014-06-29T07:22:13Z</time>
      </trkpt>
      <trkpt lat="42.53952" lon="8.75635">
        <ele>97.711182</ele>
        <time>2014-06-29T07:22:19Z</time>
      </trkpt>
      <trkpt lat="42.5395" lon="8.75641">
        <ele>97.230469</ele>
        <time>2014-06-29T07:22:23Z</time>
      </trkpt>
      <trkpt lat="42.53951" lon="8.75646">
        <ele>97.711182</ele>
        <time>2014-06-29T07:22:38Z</time>
      </trkpt>
      <trkpt lat="42.53952" lon="8.75644">
        <ele>97.230469</ele>
        <time>2014-06-29T07:22:43Z</time>
      </trkpt>
      <trkpt lat="42.53952" lon="8.75638">
        <ele>98.672485</ele>
        <time>2014-06-29T07:22:47Z</time>
      </trkpt>
      <trkpt lat="42.53951" lon="8.75635">
        <ele>99.153076</ele>
        <time>2014-06-29T07:22:49Z</time>
      </trkpt>
      <trkpt lat="42.53949" lon="8.75631">
        <ele>99.153076</ele>
        <time>2014-06-29T07:22:53Z</time>
      </trkpt>
      <trkpt lat="42.53943" lon="8.75621">
        <ele>99.633789</ele>
        <time>2014-06-29T07:23:02Z</time>
      </trkpt>
      <trkpt lat="42.53931" lon="8.75613">
        <ele>101.075684</ele>
        <time>2014-06-29T07:23:16Z</time>
      </trkpt>
      <trkpt lat="42.53918" lon="8.75605">
        <ele>103.479004</ele>
        <time>2014-06-29T07:23:32Z</time>
      </trkpt>
      <trkpt lat="42.53907" lon="8.75602">
        <ele>106.843628</ele>
        <time>2014-06-29T07:23:46Z</time>
      </trkpt>
      <trkpt lat="42.53904" lon="8.75602">
        <ele>107.324341</ele>
        <time>2014-06-29T07:23:57Z</time>
      </trkpt>
      <trkpt lat="42.53893" lon="8.75602">
        <ele>109.727661</ele>
        <time>2014-06-29T07:24:14Z</time>
      </trkpt>
      <trkpt lat="42.53879" lon="8.75606">
        <ele>111.169556</ele>
        <time>2014-06-29T07:24:32Z</time>
      </trkpt>
      <trkpt lat="42.5387" lon="8.75608">
        <ele>113.092285</ele>
        <time>2014-06-29T07:24:48Z</time>
      </trkpt>
      <trkpt lat="42.53864" lon="8.75614">
        <ele>114.053589</ele>
        <time>2014-06-29T07:25:03Z</time>
      </trkpt>
      <trkpt lat="42.53852" lon="8.75619">
        <ele>116.456787</ele>
        <time>2014-06-29T07:25:20Z</time>
      </trkpt>
      <trkpt lat="42.53846" lon="8.75626">
        <ele>118.379395</ele>
        <time>2014-06-29T07:25:34Z</time>
      </trkpt>
      <trkpt lat="42.53838" lon="8.75632">
        <ele>118.379395</ele>
        <time>2014-06-29T07:25:47Z</time>
      </trkpt>
      <trkpt lat="42.53833" lon="8.75635">
        <ele>121.744141</ele>
        <time>2014-06-29T07:25:56Z</time>
      </trkpt>
      <trkpt lat="42.53832" lon="8.75638">
        <ele>121.744141</ele>
        <time>2014-06-29T07:26:11Z</time>
      </trkpt>
      <trkpt lat="42.53828" lon="8.75648">
        <ele>124.628052</ele>
        <time>2014-06-29T07:26:33Z</time>
      </trkpt>
      <trkpt lat="42.53826" lon="8.75662">
        <ele>126.069946</ele>
        <time>2014-06-29T07:26:50Z</time>
      </trkpt>
      <trkpt lat="42.53824" lon="8.75673">
        <ele>127.031372</ele>
        <time>2014-06-29T07:26:59Z</time>
      </trkpt>
      <trkpt lat="42.53815" lon="8.75672">
        <ele>129.915283</ele>
        <time>2014-06-29T07:27:15Z</time>
      </trkpt>
      <trkpt lat="42.53808" lon="8.75666">
        <ele>133.279907</ele>
        <time>2014-06-29T07:27:26Z</time>
      </trkpt>
      <trkpt lat="42.53808" lon="8.75665">
        <ele>133.279907</ele>
        <time>2014-06-29T07:27:27Z</time>
      </trkpt>
      <trkpt lat="42.53801" lon="8.75658">
        <ele>136.16394</ele>
        <time>2014-06-29T07:27:42Z</time>
      </trkpt>
      <trkpt lat="42.53795" lon="8.75647">
        <ele>137.605835</ele>
        <time>2014-06-29T07:27:57Z</time>
      </trkpt>
      <trkpt lat="42.53786" lon="8.75635">
        <ele>140.009155</ele>
        <time>2014-06-29T07:28:14Z</time>
      </trkpt>
      <trkpt lat="42.5378" lon="8.75627">
        <ele>143.373657</ele>
        <time>2014-06-29T07:28:25Z</time>
      </trkpt>
      <trkpt lat="42.53778" lon="8.75625">
        <ele>142.412476</ele>
        <time>2014-06-29T07:28:28Z</time>
      </trkpt>
      <trkpt lat="42.53771" lon="8.7563">
        <ele>144.335205</ele>
        <time>2014-06-29T07:28:43Z</time>
      </trkpt>
      <trkpt lat="42.5377" lon="8.75638">
        <ele>146.257813</ele>
        <time>2014-06-29T07:28:56Z</time>
      </trkpt>
      <trkpt lat="42.53764" lon="8.7563">
        <ele>148.661011</ele>
        <time>2014-06-29T07:29:11Z</time>
      </trkpt>
      <trkpt lat="42.53768" lon="8.75626">
        <ele>147.218994</ele>
        <time>2014-06-29T07:29:22Z</time>
      </trkpt>
      <trkpt lat="42.53768" lon="8.75615">
        <ele>147.218994</ele>
        <time>2014-06-29T07:29:36Z</time>
      </trkpt>
      <trkpt lat="42.53766" lon="8.75604">
        <ele>147.699707</ele>
        <time>2014-06-29T07:29:49Z</time>
      </trkpt>
      <trkpt lat="42.53764" lon="8.75593">
        <ele>148.661011</ele>
        <time>2014-06-29T07:30:03Z</time>
      </trkpt>
      <trkpt lat="42.53771" lon="8.75577">
        <ele>147.699707</ele>
        <time>2014-06-29T07:30:19Z</time>
      </trkpt>
      <trkpt lat="42.53773" lon="8.75567">
        <ele>148.18042</ele>
        <time>2014-06-29T07:30:27Z</time>
      </trkpt>
      <trkpt lat="42.53776" lon="8.75557">
        <ele>150.583618</ele>
        <time>2014-06-29T07:30:38Z</time>
      </trkpt>
      <trkpt lat="42.53774" lon="8.75548">
        <ele>149.622314</ele>
        <time>2014-06-29T07:30:52Z</time>
      </trkpt>
      <trkpt lat="42.53775" lon="8.75538">
        <ele>147.699707</ele>
        <time>2014-06-29T07:31:05Z</time>
      </trkpt>
      <trkpt lat="42.53771" lon="8.75536">
        <ele>149.622314</ele>
        <time>2014-06-29T07:31:16Z</time>
      </trkpt>
      <trkpt lat="42.53766" lon="8.7553">
        <ele>151.064209</ele>
        <time>2014-06-29T07:31:29Z</time>
      </trkpt>
      <trkpt lat="42.53761" lon="8.75519">
        <ele>150.583618</ele>
        <time>2014-06-29T07:31:44Z</time>
      </trkpt>
      <trkpt lat="42.5376" lon="8.75516">
        <ele>151.064209</ele>
        <time>2014-06-29T07:31:46Z</time>
      </trkpt>
      <trkpt lat="42.53756" lon="8.75508">
        <ele>151.544922</ele>
        <time>2014-06-29T07:32:00Z</time>
      </trkpt>
      <trkpt lat="42.53753" lon="8.75496">
        <ele>151.064209</ele>
        <time>2014-06-29T07:32:14Z</time>
      </trkpt>
      <trkpt lat="42.5375" lon="8.75493">
        <ele>150.583618</ele>
        <time>2014-06-29T07:32:24Z</time>
      </trkpt>
      <trkpt lat="42.53745" lon="8.75485">
        <ele>152.025757</ele>
        <time>2014-06-29T07:32:35Z</time>
      </trkpt>
      <trkpt lat="42.53741" lon="8.75477">
        <ele>151.544922</ele>
        <time>2014-06-29T07:32:49Z</time>
      </trkpt>
      <trkpt lat="42.53735" lon="8.75468">
        <ele>153.948364</ele>
        <time>2014-06-29T07:33:03Z</time>
      </trkpt>
      <trkpt lat="42.53732" lon="8.75459">
        <ele>156.832153</ele>
        <time>2014-06-29T07:33:18Z</time>
      </trkpt>
      <trkpt lat="42.53732" lon="8.75459">
        <ele>156.832153</ele>
        <time>2014-06-29T07:33:19Z</time>
      </trkpt>
      <trkpt lat="42.53729" lon="8.75456">
        <ele>156.832153</ele>
        <time>2014-06-29T07:33:31Z</time>
      </trkpt>
      <trkpt lat="42.5373" lon="8.75456">
        <ele>158.27417</ele>
        <time>2014-06-29T07:33:34Z</time>
      </trkpt>
      <trkpt lat="42.53722" lon="8.75461">
        <ele>159.716187</ele>
        <time>2014-06-29T07:33:51Z</time>
      </trkpt>
      <trkpt lat="42.53723" lon="8.75452">
        <ele>161.638916</ele>
        <time>2014-06-29T07:34:05Z</time>
      </trkpt>
      <trkpt lat="42.53722" lon="8.75445">
        <ele>164.042114</ele>
        <time>2014-06-29T07:34:19Z</time>
      </trkpt>
      <trkpt lat="42.53722" lon="8.7544">
        <ele>163.080811</ele>
        <time>2014-06-29T07:34:33Z</time>
      </trkpt>
      <trkpt lat="42.53726" lon="8.75438">
        <ele>163.561523</ele>
        <time>2014-06-29T07:34:50Z</time>
      </trkpt>
      <trkpt lat="42.53723" lon="8.75433">
        <ele>163.080811</ele>
        <time>2014-06-29T07:35:06Z</time>
      </trkpt>
      <trkpt lat="42.53723" lon="8.75433">
        <ele>163.080811</ele>
        <time>2014-06-29T07:35:07Z</time>
      </trkpt>
      <trkpt lat="42.53722" lon="8.75428">
        <ele>164.042114</ele>
        <time>2014-06-29T07:35:13Z</time>
      </trkpt>
      <trkpt lat="42.53717" lon="8.75416">
        <ele>165.964722</ele>
        <time>2014-06-29T07:35:28Z</time>
      </trkpt>
      <trkpt lat="42.53718" lon="8.75406">
        <ele>166.445313</ele>
        <time>2014-06-29T07:35:41Z</time>
      </trkpt>
      <trkpt lat="42.53717" lon="8.75393">
        <ele>166.445313</ele>
        <time>2014-06-29T07:35:55Z</time>
      </trkpt>
      <trkpt lat="42.53705" lon="8.75388">
        <ele>169.329468</ele>
        <time>2014-06-29T07:36:11Z</time>
      </trkpt>
      <trkpt lat="42.537" lon="8.75381">
        <ele>171.252075</ele>
        <time>2014-06-29T07:36:25Z</time>
      </trkpt>
      <trkpt lat="42.53698" lon="8.75364">
        <ele>171.732666</ele>
        <time>2014-06-29T07:36:43Z</time>
      </trkpt>
      <trkpt lat="42.53692" lon="8.75356">
        <ele>173.655273</ele>
        <time>2014-06-29T07:36:58Z</time>
      </trkpt>
      <trkpt lat="42.53684" lon="8.75352">
        <ele>176.058594</ele>
        <time>2014-06-29T07:37:12Z</time>
      </trkpt>
      <trkpt lat="42.53675" lon="8.75349">
        <ele>178.942627</ele>
        <time>2014-06-29T07:37:30Z</time>
      </trkpt>
      <trkpt lat="42.5367" lon="8.75341">
        <ele>178.461914</ele>
        <time>2014-06-29T07:37:47Z</time>
      </trkpt>
      <trkpt lat="42.53667" lon="8.75326">
        <ele>178.942627</ele>
        <time>2014-06-29T07:38:05Z</time>
      </trkpt>
      <trkpt lat="42.53671" lon="8.75319">
        <ele>178.461914</ele>
        <time>2014-06-29T07:38:21Z</time>
      </trkpt>
      <trkpt lat="42.53672" lon="8.75318">
        <ele>181.345825</ele>
        <time>2014-06-29T07:38:38Z</time>
      </trkpt>
      <trkpt lat="42.53672" lon="8.75309">
        <ele>183.749023</ele>
        <time>2014-06-29T07:38:59Z</time>
      </trkpt>
      <trkpt lat="42.53673" lon="8.75305">
        <ele>185.671753</ele>
        <time>2014-06-29T07:39:17Z</time>
      </trkpt>
      <trkpt lat="42.53674" lon="8.753">
        <ele>186.633179</ele>
        <time>2014-06-29T07:39:31Z</time>
      </trkpt>
      <trkpt lat="42.53673" lon="8.75292">
        <ele>189.036377</ele>
        <time>2014-06-29T07:39:45Z</time>
      </trkpt>
      <trkpt lat="42.53674" lon="8.75286">
        <ele>191.439575</ele>
        <time>2014-06-29T07:40:00Z</time>
      </trkpt>
      <trkpt lat="42.53668" lon="8.75279">
        <ele>193.362305</ele>
        <time>2014-06-29T07:40:16Z</time>
      </trkpt>
      <trkpt lat="42.53659" lon="8.75268">
        <ele>196.246338</ele>
        <time>2014-06-29T07:40:30Z</time>
      </trkpt>
      <trkpt lat="42.53649" lon="8.75259">
        <ele>197.20752</ele>
        <time>2014-06-29T07:40:45Z</time>
      </trkpt>
      <trkpt lat="42.53636" lon="8.75255">
        <ele>198.168945</ele>
        <time>2014-06-29T07:41:02Z</time>
      </trkpt>
      <trkpt lat="42.53627" lon="8.75252">
        <ele>200.091675</ele>
        <time>2014-06-29T07:41:17Z</time>
      </trkpt>
      <trkpt lat="42.53621" lon="8.75249">
        <ele>202.975464</ele>
        <time>2014-06-29T07:41:30Z</time>
      </trkpt>
      <trkpt lat="42.53621" lon="8.75248">
        <ele>202.975464</ele>
        <time>2014-06-29T07:41:31Z</time>
      </trkpt>
      <trkpt lat="42.53615" lon="8.75245">
        <ele>205.859497</ele>
        <time>2014-06-29T07:41:45Z</time>
      </trkpt>
      <trkpt lat="42.53607" lon="8.75241">
        <ele>208.262817</ele>
        <time>2014-06-29T07:42:04Z</time>
      </trkpt>
      <trkpt lat="42.53601" lon="8.75238">
        <ele>210.666016</ele>
        <time>2014-06-29T07:42:22Z</time>
      </trkpt>
      <trkpt lat="42.53602" lon="8.75238">
        <ele>211.627441</ele>
        <time>2014-06-29T07:42:43Z</time>
      </trkpt>
      <trkpt lat="42.53602" lon="8.75238">
        <ele>211.146729</ele>
        <time>2014-06-29T07:43:05Z</time>
      </trkpt>
      <trkpt lat="42.53598" lon="8.75237">
        <ele>212.108032</ele>
        <time>2014-06-29T07:43:22Z</time>
      </trkpt>
      <trkpt lat="42.53593" lon="8.7523">
        <ele>214.991943</ele>
        <time>2014-06-29T07:43:36Z</time>
      </trkpt>
      <trkpt lat="42.53585" lon="8.75227">
        <ele>216.914673</ele>
        <time>2014-06-29T07:43:51Z</time>
      </trkpt>
      <trkpt lat="42.53582" lon="8.75223">
        <ele>219.798584</ele>
        <time>2014-06-29T07:44:02Z</time>
      </trkpt>
      <trkpt lat="42.53577" lon="8.75219">
        <ele>221.240601</ele>
        <time>2014-06-29T07:44:17Z</time>
      </trkpt>
      <trkpt lat="42.53567" lon="8.75216">
        <ele>224.605225</ele>
        <time>2014-06-29T07:44:34Z</time>
      </trkpt>
      <trkpt lat="42.53562" lon="8.7521">
        <ele>227.969727</ele>
        <time>2014-06-29T07:44:47Z</time>
      </trkpt>
      <trkpt lat="42.53557" lon="8.75204">
        <ele>229.892334</ele>
        <time>2014-06-29T07:45:02Z</time>
      </trkpt>
      <trkpt lat="42.53551" lon="8.75199">
        <ele>231.334351</ele>
        <time>2014-06-29T07:45:16Z</time>
      </trkpt>
      <trkpt lat="42.53543" lon="8.75198">
        <ele>234.218384</ele>
        <time>2014-06-29T07:45:29Z</time>
      </trkpt>
      <trkpt lat="42.53538" lon="8.75197">
        <ele>237.582886</ele>
        <time>2014-06-29T07:45:43Z</time>
      </trkpt>
      <trkpt lat="42.53531" lon="8.75201">
        <ele>238.063599</ele>
        <time>2014-06-29T07:46:02Z</time>
      </trkpt>
      <trkpt lat="42.53525" lon="8.75201">
        <ele>239.986206</ele>
        <time>2014-06-29T07:46:16Z</time>
      </trkpt>
      <trkpt lat="42.53521" lon="8.752">
        <ele>241.428223</ele>
        <time>2014-06-29T07:46:31Z</time>
      </trkpt>
      <trkpt lat="42.53519" lon="8.75195">
        <ele>241.428223</ele>
        <time>2014-06-29T07:46:42Z</time>
      </trkpt>
      <trkpt lat="42.53515" lon="8.75196">
        <ele>241.428223</ele>
        <time>2014-06-29T07:46:53Z</time>
      </trkpt>
      <trkpt lat="42.53513" lon="8.75201">
        <ele>243.35083</ele>
        <time>2014-06-29T07:47:21Z</time>
      </trkpt>
      <trkpt lat="42.53507" lon="8.75199">
        <ele>244.792847</ele>
        <time>2014-06-29T07:47:35Z</time>
      </trkpt>
      <trkpt lat="42.53505" lon="8.752">
        <ele>247.196045</ele>
        <time>2014-06-29T07:47:40Z</time>
      </trkpt>
      <trkpt lat="42.53499" lon="8.75197">
        <ele>248.638184</ele>
        <time>2014-06-29T07:47:55Z</time>
      </trkpt>
      <trkpt lat="42.53499" lon="8.75195">
        <ele>250.560791</ele>
        <time>2014-06-29T07:48:15Z</time>
      </trkpt>
      <trkpt lat="42.53497" lon="8.75196">
        <ele>252.002808</ele>
        <time>2014-06-29T07:48:33Z</time>
      </trkpt>
      <trkpt lat="42.53496" lon="8.75194">
        <ele>252.002808</ele>
        <time>2014-06-29T07:48:47Z</time>
      </trkpt>
      <trkpt lat="42.53495" lon="8.75195">
        <ele>252.483398</ele>
        <time>2014-06-29T07:48:55Z</time>
      </trkpt>
      <trkpt lat="42.53492" lon="8.75196">
        <ele>251.041382</ele>
        <time>2014-06-29T07:49:08Z</time>
      </trkpt>
      <trkpt lat="42.53491" lon="8.752">
        <ele>251.041382</ele>
        <time>2014-06-29T07:49:36Z</time>
      </trkpt>
      <trkpt lat="42.53491" lon="8.75204">
        <ele>251.522095</ele>
        <time>2014-06-29T07:50:01Z</time>
      </trkpt>
      <trkpt lat="42.53488" lon="8.75207">
        <ele>253.444702</ele>
        <time>2014-06-29T07:50:20Z</time>
      </trkpt>
      <trkpt lat="42.53481" lon="8.75206">
        <ele>253.444702</ele>
        <time>2014-06-29T07:50:36Z</time>
      </trkpt>
      <trkpt lat="42.53476" lon="8.75208">
        <ele>256.809326</ele>
        <time>2014-06-29T07:50:52Z</time>
      </trkpt>
      <trkpt lat="42.53473" lon="8.75207">
        <ele>257.770752</ele>
        <time>2014-06-29T07:51:06Z</time>
      </trkpt>
      <trkpt lat="42.53469" lon="8.75204">
        <ele>260.654541</ele>
        <time>2014-06-29T07:51:20Z</time>
      </trkpt>
      <trkpt lat="42.53467" lon="8.75204">
        <ele>261.135254</ele>
        <time>2014-06-29T07:51:39Z</time>
      </trkpt>
      <trkpt lat="42.53466" lon="8.75204">
        <ele>262.096558</ele>
        <time>2014-06-29T07:51:42Z</time>
      </trkpt>
      <trkpt lat="42.5346" lon="8.75199">
        <ele>264.499878</ele>
        <time>2014-06-29T07:52:00Z</time>
      </trkpt>
      <trkpt lat="42.53454" lon="8.75195">
        <ele>267.383911</ele>
        <time>2014-06-29T07:52:16Z</time>
      </trkpt>
      <trkpt lat="42.5345" lon="8.75192">
        <ele>269.306519</ele>
        <time>2014-06-29T07:52:26Z</time>
      </trkpt>
      <trkpt lat="42.53447" lon="8.75191">
        <ele>272.19043</ele>
        <time>2014-06-29T07:52:37Z</time>
      </trkpt>
      <trkpt lat="42.53439" lon="8.75189">
        <ele>273.632446</ele>
        <time>2014-06-29T07:52:55Z</time>
      </trkpt>
      <trkpt lat="42.53434" lon="8.75188">
        <ele>276.516357</ele>
        <time>2014-06-29T07:53:06Z</time>
      </trkpt>
      <trkpt lat="42.53426" lon="8.75187">
        <ele>277.958252</ele>
        <time>2014-06-29T07:53:24Z</time>
      </trkpt>
      <trkpt lat="42.53421" lon="8.75183">
        <ele>278.919678</ele>
        <time>2014-06-29T07:53:38Z</time>
      </trkpt>
      <trkpt lat="42.53412" lon="8.7518">
        <ele>280.842407</ele>
        <time>2014-06-29T07:53:52Z</time>
      </trkpt>
      <trkpt lat="42.53405" lon="8.75177">
        <ele>283.726196</ele>
        <time>2014-06-29T07:54:08Z</time>
      </trkpt>
      <trkpt lat="42.53396" lon="8.75175">
        <ele>286.610229</ele>
        <time>2014-06-29T07:54:28Z</time>
      </trkpt>
      <trkpt lat="42.53391" lon="8.7517">
        <ele>289.974854</ele>
        <time>2014-06-29T07:54:42Z</time>
      </trkpt>
      <trkpt lat="42.53383" lon="8.75168">
        <ele>292.858765</ele>
        <time>2014-06-29T07:54:58Z</time>
      </trkpt>
      <trkpt lat="42.53382" lon="8.75168">
        <ele>293.339355</ele>
        <time>2014-06-29T07:54:59Z</time>
      </trkpt>
      <trkpt lat="42.53377" lon="8.75165">
        <ele>294.300781</ele>
        <time>2014-06-29T07:55:16Z</time>
      </trkpt>
      <trkpt lat="42.53373" lon="8.75163">
        <ele>298.146118</ele>
        <time>2014-06-29T07:55:29Z</time>
      </trkpt>
      <trkpt lat="42.53368" lon="8.75165">
        <ele>299.588013</ele>
        <time>2014-06-29T07:55:46Z</time>
      </trkpt>
      <trkpt lat="42.53361" lon="8.75163">
        <ele>302.471924</ele>
        <time>2014-06-29T07:56:03Z</time>
      </trkpt>
      <trkpt lat="42.53354" lon="8.75165">
        <ele>304.394653</ele>
        <time>2014-06-29T07:56:20Z</time>
      </trkpt>
      <trkpt lat="42.53349" lon="8.75168">
        <ele>304.875244</ele>
        <time>2014-06-29T07:56:35Z</time>
      </trkpt>
      <trkpt lat="42.53347" lon="8.75172">
        <ele>305.83667</ele>
        <time>2014-06-29T07:56:49Z</time>
      </trkpt>
      <trkpt lat="42.53343" lon="8.75177">
        <ele>306.797852</ele>
        <time>2014-06-29T07:57:04Z</time>
      </trkpt>
      <trkpt lat="42.53341" lon="8.75184">
        <ele>306.797852</ele>
        <time>2014-06-29T07:57:18Z</time>
      </trkpt>
      <trkpt lat="42.53334" lon="8.75189">
        <ele>308.720459</ele>
        <time>2014-06-29T07:57:34Z</time>
      </trkpt>
      <trkpt lat="42.5333" lon="8.75193">
        <ele>311.123779</ele>
        <time>2014-06-29T07:57:47Z</time>
      </trkpt>
      <trkpt lat="42.53329" lon="8.75195">
        <ele>311.604492</ele>
        <time>2014-06-29T07:58:00Z</time>
      </trkpt>
      <trkpt lat="42.53328" lon="8.75196">
        <ele>311.604492</ele>
        <time>2014-06-29T07:58:28Z</time>
      </trkpt>
      <trkpt lat="42.53329" lon="8.75197">
        <ele>312.085205</ele>
        <time>2014-06-29T07:58:44Z</time>
      </trkpt>
      <trkpt lat="42.53322" lon="8.75196">
        <ele>312.085205</ele>
        <time>2014-06-29T07:59:03Z</time>
      </trkpt>
      <trkpt lat="42.53315" lon="8.75197">
        <ele>314.007813</ele>
        <time>2014-06-29T07:59:20Z</time>
      </trkpt>
      <trkpt lat="42.53311" lon="8.75196">
        <ele>316.411011</ele>
        <time>2014-06-29T07:59:33Z</time>
      </trkpt>
      <trkpt lat="42.53306" lon="8.75198">
        <ele>318.333618</ele>
        <time>2014-06-29T07:59:49Z</time>
      </trkpt>
      <trkpt lat="42.53301" lon="8.75201">
        <ele>321.217773</ele>
        <time>2014-06-29T08:00:00Z</time>
      </trkpt>
      <trkpt lat="42.53296" lon="8.75203">
        <ele>322.659668</ele>
        <time>2014-06-29T08:00:15Z</time>
      </trkpt>
      <trkpt lat="42.53293" lon="8.75206">
        <ele>323.620972</ele>
        <time>2014-06-29T08:00:34Z</time>
      </trkpt>
      <trkpt lat="42.53287" lon="8.75211">
        <ele>326.02417</ele>
        <time>2014-06-29T08:00:51Z</time>
      </trkpt>
      <trkpt lat="42.53282" lon="8.75214">
        <ele>328.427612</ele>
        <time>2014-06-29T08:01:06Z</time>
      </trkpt>
      <trkpt lat="42.53275" lon="8.75215">
        <ele>329.869507</ele>
        <time>2014-06-29T08:01:21Z</time>
      </trkpt>
      <trkpt lat="42.5327" lon="8.7522">
        <ele>332.75354</ele>
        <time>2014-06-29T08:01:35Z</time>
      </trkpt>
      <trkpt lat="42.53265" lon="8.75221">
        <ele>334.676147</ele>
        <time>2014-06-29T08:01:46Z</time>
      </trkpt>
      <trkpt lat="42.53257" lon="8.75225">
        <ele>337.560059</ele>
        <time>2014-06-29T08:02:01Z</time>
      </trkpt>
      <trkpt lat="42.53253" lon="8.75233">
        <ele>339.002075</ele>
        <time>2014-06-29T08:02:14Z</time>
      </trkpt>
      <trkpt lat="42.53246" lon="8.75237">
        <ele>341.885986</ele>
        <time>2014-06-29T08:02:30Z</time>
      </trkpt>
      <trkpt lat="42.53239" lon="8.75244">
        <ele>343.327881</ele>
        <time>2014-06-29T08:02:45Z</time>
      </trkpt>
      <trkpt lat="42.53229" lon="8.7525">
        <ele>345.731323</ele>
        <time>2014-06-29T08:03:03Z</time>
      </trkpt>
      <trkpt lat="42.53221" lon="8.75257">
        <ele>346.212036</ele>
        <time>2014-06-29T08:03:18Z</time>
      </trkpt>
      <trkpt lat="42.5322" lon="8.75258">
        <ele>347.653931</ele>
        <time>2014-06-29T08:03:21Z</time>
      </trkpt>
      <trkpt lat="42.5321" lon="8.75259">
        <ele>347.653931</ele>
        <time>2014-06-29T08:03:36Z</time>
      </trkpt>
      <trkpt lat="42.53201" lon="8.7526">
        <ele>349.095825</ele>
        <time>2014-06-29T08:03:51Z</time>
      </trkpt>
      <trkpt lat="42.53193" lon="8.75263">
        <ele>350.057251</ele>
        <time>2014-06-29T08:04:05Z</time>
      </trkpt>
      <trkpt lat="42.53185" lon="8.75268">
        <ele>350.537842</ele>
        <time>2014-06-29T08:04:19Z</time>
      </trkpt>
      <trkpt lat="42.53176" lon="8.75271">
        <ele>351.979858</ele>
        <time>2014-06-29T08:04:34Z</time>
      </trkpt>
      <trkpt lat="42.53167" lon="8.7527">
        <ele>354.383179</ele>
        <time>2014-06-29T08:04:50Z</time>
      </trkpt>
      <trkpt lat="42.53161" lon="8.75271">
        <ele>355.825195</ele>
        <time>2014-06-29T08:05:03Z</time>
      </trkpt>
      <trkpt lat="42.53154" lon="8.75272">
        <ele>359.189697</ele>
        <time>2014-06-29T08:05:18Z</time>
      </trkpt>
      <trkpt lat="42.53146" lon="8.75272">
        <ele>361.59314</ele>
        <time>2014-06-29T08:05:38Z</time>
      </trkpt>
      <trkpt lat="42.53139" lon="8.75273">
        <ele>365.438354</ele>
        <time>2014-06-29T08:05:51Z</time>
      </trkpt>
      <trkpt lat="42.53132" lon="8.75272">
        <ele>366.880249</ele>
        <time>2014-06-29T08:06:04Z</time>
      </trkpt>
      <trkpt lat="42.53126" lon="8.75273">
        <ele>369.764282</ele>
        <time>2014-06-29T08:06:18Z</time>
      </trkpt>
      <trkpt lat="42.53117" lon="8.75274">
        <ele>371.68689</ele>
        <time>2014-06-29T08:06:32Z</time>
      </trkpt>
      <trkpt lat="42.53111" lon="8.75279">
        <ele>373.609497</ele>
        <time>2014-06-29T08:06:43Z</time>
      </trkpt>
      <trkpt lat="42.53104" lon="8.75279">
        <ele>376.012817</ele>
        <time>2014-06-29T08:07:00Z</time>
      </trkpt>
      <trkpt lat="42.53097" lon="8.75278">
        <ele>377.935425</ele>
        <time>2014-06-29T08:07:15Z</time>
      </trkpt>
      <trkpt lat="42.53086" lon="8.75282">
        <ele>378.896851</ele>
        <time>2014-06-29T08:07:33Z</time>
      </trkpt>
      <trkpt lat="42.53077" lon="8.75281">
        <ele>381.78064</ele>
        <time>2014-06-29T08:07:48Z</time>
      </trkpt>
      <trkpt lat="42.5307" lon="8.75279">
        <ele>384.184082</ele>
        <time>2014-06-29T08:08:01Z</time>
      </trkpt>
      <trkpt lat="42.53062" lon="8.75277">
        <ele>386.587402</ele>
        <time>2014-06-29T08:08:19Z</time>
      </trkpt>
      <trkpt lat="42.53056" lon="8.75276">
        <ele>387.067993</ele>
        <time>2014-06-29T08:08:34Z</time>
      </trkpt>
      <trkpt lat="42.53052" lon="8.75277">
        <ele>388.990601</ele>
        <time>2014-06-29T08:08:47Z</time>
      </trkpt>
      <trkpt lat="42.53043" lon="8.7528">
        <ele>390.432617</ele>
        <time>2014-06-29T08:09:03Z</time>
      </trkpt>
      <trkpt lat="42.53033" lon="8.75275">
        <ele>391.393799</ele>
        <time>2014-06-29T08:09:21Z</time>
      </trkpt>
      <trkpt lat="42.53024" lon="8.75271">
        <ele>394.758545</ele>
        <time>2014-06-29T08:09:37Z</time>
      </trkpt>
      <trkpt lat="42.53021" lon="8.75271">
        <ele>396.681152</ele>
        <time>2014-06-29T08:09:51Z</time>
      </trkpt>
      <trkpt lat="42.53015" lon="8.75268">
        <ele>395.719849</ele>
        <time>2014-06-29T08:10:15Z</time>
      </trkpt>
      <trkpt lat="42.53013" lon="8.75268">
        <ele>397.161743</ele>
        <time>2014-06-29T08:10:28Z</time>
      </trkpt>
      <trkpt lat="42.53014" lon="8.75266">
        <ele>397.642456</ele>
        <time>2014-06-29T08:10:50Z</time>
      </trkpt>
      <trkpt lat="42.53008" lon="8.75263">
        <ele>399.084351</ele>
        <time>2014-06-29T08:10:59Z</time>
      </trkpt>
      <trkpt lat="42.53006" lon="8.75261">
        <ele>399.084351</ele>
        <time>2014-06-29T08:11:03Z</time>
      </trkpt>
      <trkpt lat="42.53" lon="8.75259">
        <ele>400.526489</ele>
        <time>2014-06-29T08:11:13Z</time>
      </trkpt>
      <trkpt lat="42.52998" lon="8.75259">
        <ele>401.487793</ele>
        <time>2014-06-29T08:11:17Z</time>
      </trkpt>
      <trkpt lat="42.52995" lon="8.75259">
        <ele>402.449097</ele>
        <time>2014-06-29T08:11:21Z</time>
      </trkpt>
      <trkpt lat="42.52989" lon="8.75253">
        <ele>404.852295</ele>
        <time>2014-06-29T08:11:38Z</time>
      </trkpt>
      <trkpt lat="42.52986" lon="8.75249">
        <ele>406.774902</ele>
        <time>2014-06-29T08:11:44Z</time>
      </trkpt>
      <trkpt lat="42.52979" lon="8.75243">
        <ele>410.139648</ele>
        <time>2014-06-29T08:12:00Z</time>
      </trkpt>
      <trkpt lat="42.52972" lon="8.75237">
        <ele>413.02356</ele>
        <time>2014-06-29T08:12:14Z</time>
      </trkpt>
      <trkpt lat="42.52967" lon="8.75234">
        <ele>415.42688</ele>
        <time>2014-06-29T08:12:28Z</time>
      </trkpt>
      <trkpt lat="42.52966" lon="8.75227">
        <ele>416.868896</ele>
        <time>2014-06-29T08:12:43Z</time>
      </trkpt>
      <trkpt lat="42.52964" lon="8.75222">
        <ele>420.233398</ele>
        <time>2014-06-29T08:12:54Z</time>
      </trkpt>
      <trkpt lat="42.52958" lon="8.75217">
        <ele>422.636719</ele>
        <time>2014-06-29T08:13:11Z</time>
      </trkpt>
      <trkpt lat="42.52957" lon="8.75207">
        <ele>425.040161</ele>
        <time>2014-06-29T08:13:29Z</time>
      </trkpt>
      <trkpt lat="42.52954" lon="8.75201">
        <ele>427.92395</ele>
        <time>2014-06-29T08:13:44Z</time>
      </trkpt>
      <trkpt lat="42.5295" lon="8.7519">
        <ele>431.288574</ele>
        <time>2014-06-29T08:14:13Z</time>
      </trkpt>
      <trkpt lat="42.52947" lon="8.7518">
        <ele>433.691895</ele>
        <time>2014-06-29T08:14:29Z</time>
      </trkpt>
      <trkpt lat="42.52944" lon="8.75178">
        <ele>434.65332</ele>
        <time>2014-06-29T08:14:33Z</time>
      </trkpt>
      <trkpt lat="42.52939" lon="8.75176">
        <ele>436.095215</ele>
        <time>2014-06-29T08:14:46Z</time>
      </trkpt>
      <trkpt lat="42.52935" lon="8.7517">
        <ele>439.459717</ele>
        <time>2014-06-29T08:15:01Z</time>
      </trkpt>
      <trkpt lat="42.52932" lon="8.75165">
        <ele>441.382446</ele>
        <time>2014-06-29T08:15:15Z</time>
      </trkpt>
      <trkpt lat="42.52927" lon="8.75162">
        <ele>443.785767</ele>
        <time>2014-06-29T08:15:29Z</time>
      </trkpt>
      <trkpt lat="42.52923" lon="8.75154">
        <ele>446.669678</ele>
        <time>2014-06-29T08:15:45Z</time>
      </trkpt>
      <trkpt lat="42.52918" lon="8.75149">
        <ele>448.592407</ele>
        <time>2014-06-29T08:15:57Z</time>
      </trkpt>
      <trkpt lat="42.52912" lon="8.75142">
        <ele>451.957031</ele>
        <time>2014-06-29T08:16:13Z</time>
      </trkpt>
      <trkpt lat="42.52909" lon="8.75137">
        <ele>454.360229</ele>
        <time>2014-06-29T08:16:28Z</time>
      </trkpt>
      <trkpt lat="42.52909" lon="8.75128">
        <ele>457.244263</ele>
        <time>2014-06-29T08:16:46Z</time>
      </trkpt>
      <trkpt lat="42.52903" lon="8.75123">
        <ele>459.647583</ele>
        <time>2014-06-29T08:17:00Z</time>
      </trkpt>
      <trkpt lat="42.52898" lon="8.75117">
        <ele>462.531372</ele>
        <time>2014-06-29T08:17:15Z</time>
      </trkpt>
      <trkpt lat="42.52893" lon="8.75112">
        <ele>465.896118</ele>
        <time>2014-06-29T08:17:29Z</time>
      </trkpt>
      <trkpt lat="42.52889" lon="8.75107">
        <ele>469.260742</ele>
        <time>2014-06-29T08:17:42Z</time>
      </trkpt>
      <trkpt lat="42.52883" lon="8.75096">
        <ele>472.625366</ele>
        <time>2014-06-29T08:18:06Z</time>
      </trkpt>
      <trkpt lat="42.52876" lon="8.75086">
        <ele>475.509277</ele>
        <time>2014-06-29T08:18:28Z</time>
      </trkpt>
      <trkpt lat="42.52871" lon="8.75075">
        <ele>479.354492</ele>
        <time>2014-06-29T08:18:49Z</time>
      </trkpt>
      <trkpt lat="42.52867" lon="8.75064">
        <ele>481.277222</ele>
        <time>2014-06-29T08:19:04Z</time>
      </trkpt>
      <trkpt lat="42.5286" lon="8.75053">
        <ele>482.719238</ele>
        <time>2014-06-29T08:19:22Z</time>
      </trkpt>
      <trkpt lat="42.52859" lon="8.7505">
        <ele>484.161133</ele>
        <time>2014-06-29T08:19:38Z</time>
      </trkpt>
      <trkpt lat="42.52858" lon="8.75049">
        <ele>482.719238</ele>
        <time>2014-06-29T08:19:41Z</time>
      </trkpt>
      <trkpt lat="42.52851" lon="8.75042">
        <ele>486.08374</ele>
        <time>2014-06-29T08:19:54Z</time>
      </trkpt>
      <trkpt lat="42.52846" lon="8.75034">
        <ele>488.00647</ele>
        <time>2014-06-29T08:20:11Z</time>
      </trkpt>
      <trkpt lat="42.52844" lon="8.75025">
        <ele>489.448364</ele>
        <time>2014-06-29T08:20:25Z</time>
      </trkpt>
      <trkpt lat="42.5284" lon="8.75018">
        <ele>490.890381</ele>
        <time>2014-06-29T08:20:41Z</time>
      </trkpt>
      <trkpt lat="42.52837" lon="8.75013">
        <ele>492.332397</ele>
        <time>2014-06-29T08:20:56Z</time>
      </trkpt>
      <trkpt lat="42.52831" lon="8.75011">
        <ele>493.774292</ele>
        <time>2014-06-29T08:21:12Z</time>
      </trkpt>
      <trkpt lat="42.52826" lon="8.75009">
        <ele>497.138916</ele>
        <time>2014-06-29T08:21:24Z</time>
      </trkpt>
      <trkpt lat="42.52822" lon="8.75003">
        <ele>498.580933</ele>
        <time>2014-06-29T08:21:41Z</time>
      </trkpt>
      <trkpt lat="42.52817" lon="8.75001">
        <ele>501.945557</ele>
        <time>2014-06-29T08:21:52Z</time>
      </trkpt>
      <trkpt lat="42.52811" lon="8.74997">
        <ele>504.829468</ele>
        <time>2014-06-29T08:22:06Z</time>
      </trkpt>
      <trkpt lat="42.52806" lon="8.74993">
        <ele>506.752075</ele>
        <time>2014-06-29T08:22:18Z</time>
      </trkpt>
      <trkpt lat="42.52803" lon="8.74992">
        <ele>509.155396</ele>
        <time>2014-06-29T08:22:31Z</time>
      </trkpt>
      <trkpt lat="42.52798" lon="8.74991">
        <ele>511.558716</ele>
        <time>2014-06-29T08:22:44Z</time>
      </trkpt>
      <trkpt lat="42.52794" lon="8.7499">
        <ele>513.481445</ele>
        <time>2014-06-29T08:22:58Z</time>
      </trkpt>
      <trkpt lat="42.52791" lon="8.74983">
        <ele>514.92334</ele>
        <time>2014-06-29T08:23:14Z</time>
      </trkpt>
      <trkpt lat="42.52793" lon="8.74975">
        <ele>516.365234</ele>
        <time>2014-06-29T08:23:29Z</time>
      </trkpt>
      <trkpt lat="42.5279" lon="8.74965">
        <ele>518.768555</ele>
        <time>2014-06-29T08:23:48Z</time>
      </trkpt>
      <trkpt lat="42.52783" lon="8.74964">
        <ele>521.652588</ele>
        <time>2014-06-29T08:24:02Z</time>
      </trkpt>
      <trkpt lat="42.52778" lon="8.74961">
        <ele>524.536499</ele>
        <time>2014-06-29T08:24:18Z</time>
      </trkpt>
      <trkpt lat="42.52774" lon="8.74955">
        <ele>526.459106</ele>
        <time>2014-06-29T08:24:37Z</time>
      </trkpt>
      <trkpt lat="42.5277" lon="8.74953">
        <ele>529.82373</ele>
        <time>2014-06-29T08:24:52Z</time>
      </trkpt>
      <trkpt lat="42.52768" lon="8.74953">
        <ele>531.265747</ele>
        <time>2014-06-29T08:25:13Z</time>
      </trkpt>
      <trkpt lat="42.52766" lon="8.74949">
        <ele>532.227051</ele>
        <time>2014-06-29T08:25:29Z</time>
      </trkpt>
      <trkpt lat="42.52768" lon="8.74941">
        <ele>534.149658</ele>
        <time>2014-06-29T08:25:42Z</time>
      </trkpt>
      <trkpt lat="42.52769" lon="8.74932">
        <ele>535.110962</ele>
        <time>2014-06-29T08:25:56Z</time>
      </trkpt>
      <trkpt lat="42.52777" lon="8.74922">
        <ele>537.033691</ele>
        <time>2014-06-29T08:26:13Z</time>
      </trkpt>
      <trkpt lat="42.52775" lon="8.74915">
        <ele>538.475708</ele>
        <time>2014-06-29T08:26:27Z</time>
      </trkpt>
      <trkpt lat="42.5278" lon="8.74912">
        <ele>539.43689</ele>
        <time>2014-06-29T08:26:40Z</time>
      </trkpt>
      <trkpt lat="42.52781" lon="8.74906">
        <ele>540.398315</ele>
        <time>2014-06-29T08:27:00Z</time>
      </trkpt>
      <trkpt lat="42.52783" lon="8.74896">
        <ele>543.282104</ele>
        <time>2014-06-29T08:27:16Z</time>
      </trkpt>
      <trkpt lat="42.52788" lon="8.74895">
        <ele>544.724243</ele>
        <time>2014-06-29T08:27:27Z</time>
      </trkpt>
      <trkpt lat="42.52786" lon="8.74887">
        <ele>547.127441</ele>
        <time>2014-06-29T08:27:40Z</time>
      </trkpt>
      <trkpt lat="42.52783" lon="8.74883">
        <ele>549.530762</ele>
        <time>2014-06-29T08:27:52Z</time>
      </trkpt>
      <trkpt lat="42.52787" lon="8.74877">
        <ele>550.972656</ele>
        <time>2014-06-29T08:28:05Z</time>
      </trkpt>
      <trkpt lat="42.52783" lon="8.74874">
        <ele>552.895264</ele>
        <time>2014-06-29T08:28:18Z</time>
      </trkpt>
      <trkpt lat="42.5278" lon="8.7487">
        <ele>555.779297</ele>
        <time>2014-06-29T08:28:32Z</time>
      </trkpt>
      <trkpt lat="42.52777" lon="8.74864">
        <ele>558.66333</ele>
        <time>2014-06-29T08:28:45Z</time>
      </trkpt>
      <trkpt lat="42.52779" lon="8.74858">
        <ele>560.105225</ele>
        <time>2014-06-29T08:29:02Z</time>
      </trkpt>
      <trkpt lat="42.52781" lon="8.74851">
        <ele>563.469971</ele>
        <time>2014-06-29T08:29:15Z</time>
      </trkpt>
      <trkpt lat="42.52779" lon="8.74848">
        <ele>564.431152</ele>
        <time>2014-06-29T08:29:29Z</time>
      </trkpt>
      <trkpt lat="42.52775" lon="8.74844">
        <ele>566.35376</ele>
        <time>2014-06-29T08:29:45Z</time>
      </trkpt>
      <trkpt lat="42.52774" lon="8.7484">
        <ele>567.315186</ele>
        <time>2014-06-29T08:29:59Z</time>
      </trkpt>
      <trkpt lat="42.52772" lon="8.74833">
        <ele>569.237793</ele>
        <time>2014-06-29T08:30:18Z</time>
      </trkpt>
      <trkpt lat="42.52772" lon="8.7483">
        <ele>571.1604</ele>
        <time>2014-06-29T08:30:25Z</time>
      </trkpt>
      <trkpt lat="42.52772" lon="8.74823">
        <ele>573.083252</ele>
        <time>2014-06-29T08:30:39Z</time>
      </trkpt>
      <trkpt lat="42.52766" lon="8.7482">
        <ele>575.005859</ele>
        <time>2014-06-29T08:30:56Z</time>
      </trkpt>
      <trkpt lat="42.52765" lon="8.7482">
        <ele>575.486328</ele>
        <time>2014-06-29T08:30:58Z</time>
      </trkpt>
      <trkpt lat="42.52764" lon="8.74816">
        <ele>578.370361</ele>
        <time>2014-06-29T08:31:07Z</time>
      </trkpt>
      <trkpt lat="42.52766" lon="8.74809">
        <ele>580.292969</ele>
        <time>2014-06-29T08:31:22Z</time>
      </trkpt>
      <trkpt lat="42.52766" lon="8.74804">
        <ele>582.696289</ele>
        <time>2014-06-29T08:31:33Z</time>
      </trkpt>
      <trkpt lat="42.52764" lon="8.74799">
        <ele>585.580078</ele>
        <time>2014-06-29T08:31:47Z</time>
      </trkpt>
      <trkpt lat="42.52761" lon="8.74796">
        <ele>587.021973</ele>
        <time>2014-06-29T08:31:58Z</time>
      </trkpt>
      <trkpt lat="42.52761" lon="8.74797">
        <ele>585.580078</ele>
        <time>2014-06-29T08:32:28Z</time>
      </trkpt>
      <trkpt lat="42.52761" lon="8.74795">
        <ele>588.945068</ele>
        <time>2014-06-29T08:32:45Z</time>
      </trkpt>
      <trkpt lat="42.52768" lon="8.7479">
        <ele>589.425537</ele>
        <time>2014-06-29T08:32:57Z</time>
      </trkpt>
      <trkpt lat="42.52769" lon="8.74783">
        <ele>591.828857</ele>
        <time>2014-06-29T08:33:12Z</time>
      </trkpt>
      <trkpt lat="42.52765" lon="8.74773">
        <ele>594.712646</ele>
        <time>2014-06-29T08:33:29Z</time>
      </trkpt>
      <trkpt lat="42.52768" lon="8.7477">
        <ele>595.193359</ele>
        <time>2014-06-29T08:33:39Z</time>
      </trkpt>
      <trkpt lat="42.5277" lon="8.74768">
        <ele>597.59668</ele>
        <time>2014-06-29T08:33:45Z</time>
      </trkpt>
      <trkpt lat="42.52768" lon="8.74758">
        <ele>599.038574</ele>
        <time>2014-06-29T08:33:58Z</time>
      </trkpt>
      <trkpt lat="42.52764" lon="8.74747">
        <ele>600.961182</ele>
        <time>2014-06-29T08:34:14Z</time>
      </trkpt>
      <trkpt lat="42.52763" lon="8.74746">
        <ele>601.441895</ele>
        <time>2014-06-29T08:34:16Z</time>
      </trkpt>
      <trkpt lat="42.52764" lon="8.74736">
        <ele>602.883789</ele>
        <time>2014-06-29T08:34:32Z</time>
      </trkpt>
      <trkpt lat="42.52766" lon="8.74732">
        <ele>603.364502</ele>
        <time>2014-06-29T08:34:47Z</time>
      </trkpt>
      <trkpt lat="42.52768" lon="8.74724">
        <ele>603.845215</ele>
        <time>2014-06-29T08:35:00Z</time>
      </trkpt>
      <trkpt lat="42.52772" lon="8.74715">
        <ele>606.248535</ele>
        <time>2014-06-29T08:35:16Z</time>
      </trkpt>
      <trkpt lat="42.52772" lon="8.74711">
        <ele>608.651855</ele>
        <time>2014-06-29T08:35:31Z</time>
      </trkpt>
      <trkpt lat="42.52776" lon="8.74707">
        <ele>611.055176</ele>
        <time>2014-06-29T08:35:45Z</time>
      </trkpt>
      <trkpt lat="42.52779" lon="8.74705">
        <ele>611.535889</ele>
        <time>2014-06-29T08:36:03Z</time>
      </trkpt>
      <trkpt lat="42.52784" lon="8.74705">
        <ele>613.938965</ele>
        <time>2014-06-29T08:36:20Z</time>
      </trkpt>
      <trkpt lat="42.5279" lon="8.74706">
        <ele>616.342285</ele>
        <time>2014-06-29T08:36:34Z</time>
      </trkpt>
      <trkpt lat="42.52795" lon="8.74701">
        <ele>618.745605</ele>
        <time>2014-06-29T08:36:51Z</time>
      </trkpt>
      <trkpt lat="42.52793" lon="8.74689">
        <ele>620.187744</ele>
        <time>2014-06-29T08:37:06Z</time>
      </trkpt>
      <trkpt lat="42.52795" lon="8.74676">
        <ele>622.110352</ele>
        <time>2014-06-29T08:37:23Z</time>
      </trkpt>
      <trkpt lat="42.52799" lon="8.7467">
        <ele>624.513672</ele>
        <time>2014-06-29T08:37:38Z</time>
      </trkpt>
      <trkpt lat="42.52804" lon="8.74666">
        <ele>626.916992</ele>
        <time>2014-06-29T08:37:52Z</time>
      </trkpt>
      <trkpt lat="42.52803" lon="8.7466">
        <ele>627.878174</ele>
        <time>2014-06-29T08:38:06Z</time>
      </trkpt>
      <trkpt lat="42.52803" lon="8.74658">
        <ele>628.358887</ele>
        <time>2014-06-29T08:38:21Z</time>
      </trkpt>
      <trkpt lat="42.52805" lon="8.74658">
        <ele>628.8396</ele>
        <time>2014-06-29T08:38:31Z</time>
      </trkpt>
      <trkpt lat="42.52809" lon="8.74659">
        <ele>631.24292</ele>
        <time>2014-06-29T08:38:44Z</time>
      </trkpt>
      <trkpt lat="42.52815" lon="8.74654">
        <ele>632.684814</ele>
        <time>2014-06-29T08:38:59Z</time>
      </trkpt>
      <trkpt lat="42.52822" lon="8.74647">
        <ele>635.088135</ele>
        <time>2014-06-29T08:39:14Z</time>
      </trkpt>
      <trkpt lat="42.52827" lon="8.74645">
        <ele>637.010742</ele>
        <time>2014-06-29T08:39:30Z</time>
      </trkpt>
      <trkpt lat="42.52835" lon="8.7464">
        <ele>637.972168</ele>
        <time>2014-06-29T08:39:46Z</time>
      </trkpt>
      <trkpt lat="42.52837" lon="8.74621">
        <ele>639.894775</ele>
        <time>2014-06-29T08:40:04Z</time>
      </trkpt>
      <trkpt lat="42.52832" lon="8.74609">
        <ele>640.855957</ele>
        <time>2014-06-29T08:40:19Z</time>
      </trkpt>
      <trkpt lat="42.52827" lon="8.74599">
        <ele>642.778809</ele>
        <time>2014-06-29T08:40:35Z</time>
      </trkpt>
      <trkpt lat="42.52822" lon="8.74589">
        <ele>644.701172</ele>
        <time>2014-06-29T08:40:50Z</time>
      </trkpt>
      <trkpt lat="42.52815" lon="8.74578">
        <ele>644.701172</ele>
        <time>2014-06-29T08:41:05Z</time>
      </trkpt>
      <trkpt lat="42.52812" lon="8.74566">
        <ele>644.220703</ele>
        <time>2014-06-29T08:41:21Z</time>
      </trkpt>
      <trkpt lat="42.52809" lon="8.74557">
        <ele>643.73999</ele>
        <time>2014-06-29T08:41:35Z</time>
      </trkpt>
      <trkpt lat="42.52813" lon="8.7455">
        <ele>646.624023</ele>
        <time>2014-06-29T08:41:52Z</time>
      </trkpt>
      <trkpt lat="42.52819" lon="8.74543">
        <ele>649.0271</ele>
        <time>2014-06-29T08:42:10Z</time>
      </trkpt>
      <trkpt lat="42.52824" lon="8.74536">
        <ele>651.43042</ele>
        <time>2014-06-29T08:42:25Z</time>
      </trkpt>
      <trkpt lat="42.52829" lon="8.74537">
        <ele>654.795166</ele>
        <time>2014-06-29T08:42:38Z</time>
      </trkpt>
      <trkpt lat="42.52833" lon="8.74525">
        <ele>658.640381</ele>
        <time>2014-06-29T08:42:56Z</time>
      </trkpt>
      <trkpt lat="42.52836" lon="8.74524">
        <ele>659.601807</ele>
        <time>2014-06-29T08:43:03Z</time>
      </trkpt>
      <trkpt lat="42.52843" lon="8.74522">
        <ele>661.524414</ele>
        <time>2014-06-29T08:43:22Z</time>
      </trkpt>
      <trkpt lat="42.52849" lon="8.74522">
        <ele>663.92749</ele>
        <time>2014-06-29T08:43:39Z</time>
      </trkpt>
      <trkpt lat="42.52851" lon="8.74511">
        <ele>663.92749</ele>
        <time>2014-06-29T08:43:56Z</time>
      </trkpt>
      <trkpt lat="42.52857" lon="8.74504">
        <ele>667.772705</ele>
        <time>2014-06-29T08:44:12Z</time>
      </trkpt>
      <trkpt lat="42.52865" lon="8.74499">
        <ele>669.695801</ele>
        <time>2014-06-29T08:44:28Z</time>
      </trkpt>
      <trkpt lat="42.52869" lon="8.74492">
        <ele>670.656982</ele>
        <time>2014-06-29T08:44:43Z</time>
      </trkpt>
      <trkpt lat="42.52872" lon="8.74481">
        <ele>672.098877</ele>
        <time>2014-06-29T08:45:00Z</time>
      </trkpt>
      <trkpt lat="42.52867" lon="8.74469">
        <ele>674.98291</ele>
        <time>2014-06-29T08:45:18Z</time>
      </trkpt>
      <trkpt lat="42.52867" lon="8.74457">
        <ele>675.944092</ele>
        <time>2014-06-29T08:45:32Z</time>
      </trkpt>
      <trkpt lat="42.52869" lon="8.74443">
        <ele>677.38623</ele>
        <time>2014-06-29T08:45:49Z</time>
      </trkpt>
      <trkpt lat="42.52873" lon="8.74434">
        <ele>679.789307</ele>
        <time>2014-06-29T08:46:07Z</time>
      </trkpt>
      <trkpt lat="42.52879" lon="8.74436">
        <ele>681.711914</ele>
        <time>2014-06-29T08:46:23Z</time>
      </trkpt>
      <trkpt lat="42.52881" lon="8.7443">
        <ele>683.634521</ele>
        <time>2014-06-29T08:46:39Z</time>
      </trkpt>
      <trkpt lat="42.52883" lon="8.74423">
        <ele>684.596191</ele>
        <time>2014-06-29T08:46:53Z</time>
      </trkpt>
      <trkpt lat="42.52886" lon="8.74413">
        <ele>685.557373</ele>
        <time>2014-06-29T08:47:03Z</time>
      </trkpt>
      <trkpt lat="42.52892" lon="8.74407">
        <ele>686.999268</ele>
        <time>2014-06-29T08:47:18Z</time>
      </trkpt>
      <trkpt lat="42.529" lon="8.7441">
        <ele>689.883301</ele>
        <time>2014-06-29T08:47:36Z</time>
      </trkpt>
      <trkpt lat="42.52906" lon="8.74407">
        <ele>692.767334</ele>
        <time>2014-06-29T08:47:52Z</time>
      </trkpt>
      <trkpt lat="42.52908" lon="8.74406">
        <ele>685.076904</ele>
        <time>2014-06-29T08:48:00Z</time>
      </trkpt>
      <trkpt lat="42.52908" lon="8.74406">
        <ele>696.612549</ele>
        <time>2014-06-29T08:48:01Z</time>
      </trkpt>
      <trkpt lat="42.52908" lon="8.74406">
        <ele>697.093018</ele>
        <time>2014-06-29T08:48:02Z</time>
      </trkpt>
      <trkpt lat="42.52908" lon="8.74406">
        <ele>692.767334</ele>
        <time>2014-06-29T08:48:04Z</time>
      </trkpt>
      <trkpt lat="42.52908" lon="8.74401">
        <ele>694.209229</ele>
        <time>2014-06-29T08:48:17Z</time>
      </trkpt>
      <trkpt lat="42.52911" lon="8.74399">
        <ele>695.651123</ele>
        <time>2014-06-29T08:48:28Z</time>
      </trkpt>
      <trkpt lat="42.52917" lon="8.74395">
        <ele>696.612549</ele>
        <time>2014-06-29T08:48:39Z</time>
      </trkpt>
      <trkpt lat="42.52917" lon="8.74394">
        <ele>697.093018</ele>
        <time>2014-06-29T08:48:45Z</time>
      </trkpt>
      <trkpt lat="42.52921" lon="8.74389">
        <ele>696.131836</ele>
        <time>2014-06-29T08:48:56Z</time>
      </trkpt>
      <trkpt lat="42.52926" lon="8.7438">
        <ele>694.689697</ele>
        <time>2014-06-29T08:49:11Z</time>
      </trkpt>
      <trkpt lat="42.52931" lon="8.7438">
        <ele>695.651123</ele>
        <time>2014-06-29T08:49:22Z</time>
      </trkpt>
      <trkpt lat="42.52933" lon="8.74385">
        <ele>696.131836</ele>
        <time>2014-06-29T08:49:33Z</time>
      </trkpt>
      <trkpt lat="42.52932" lon="8.74386">
        <ele>697.093018</ele>
        <time>2014-06-29T08:49:47Z</time>
      </trkpt>
      <trkpt lat="42.52936" lon="8.74389">
        <ele>696.612549</ele>
        <time>2014-06-29T08:49:59Z</time>
      </trkpt>
      <trkpt lat="42.52936" lon="8.74391">
        <ele>696.612549</ele>
        <time>2014-06-29T08:51:32Z</time>
      </trkpt>
      <trkpt lat="42.52937" lon="8.74389">
        <ele>699.496338</ele>
        <time>2014-06-29T08:56:50Z</time>
      </trkpt>
      <trkpt lat="42.52938" lon="8.74388">
        <ele>699.015625</ele>
        <time>2014-06-29T08:58:41Z</time>
      </trkpt>
      <trkpt lat="42.52938" lon="8.74387">
        <ele>699.977051</ele>
        <time>2014-06-29T09:01:09Z</time>
      </trkpt>
      <trkpt lat="42.52938" lon="8.74389">
        <ele>701.899902</ele>
        <time>2014-06-29T09:06:42Z</time>
      </trkpt>
      <trkpt lat="42.52937" lon="8.74388">
        <ele>701.899902</ele>
        <time>2014-06-29T09:07:40Z</time>
      </trkpt>
      <trkpt lat="42.52933" lon="8.7439">
        <ele>702.861084</ele>
        <time>2014-06-29T09:07:59Z</time>
      </trkpt>
      <trkpt lat="42.5293" lon="8.7439">
        <ele>702.861084</ele>
        <time>2014-06-29T09:08:03Z</time>
      </trkpt>
      <trkpt lat="42.52923" lon="8.74385">
        <ele>702.380371</ele>
        <time>2014-06-29T09:08:19Z</time>
      </trkpt>
      <trkpt lat="42.52922" lon="8.74383">
        <ele>701.419189</ele>
        <time>2014-06-29T09:08:22Z</time>
      </trkpt>
      <trkpt lat="42.52932" lon="8.74374">
        <ele>701.419189</ele>
        <time>2014-06-29T09:08:37Z</time>
      </trkpt>
      <trkpt lat="42.52939" lon="8.74369">
        <ele>699.496338</ele>
        <time>2014-06-29T09:08:52Z</time>
      </trkpt>
      <trkpt lat="42.52951" lon="8.74374">
        <ele>697.093018</ele>
        <time>2014-06-29T09:09:07Z</time>
      </trkpt>
      <trkpt lat="42.52955" lon="8.74367">
        <ele>696.612549</ele>
        <time>2014-06-29T09:09:21Z</time>
      </trkpt>
      <trkpt lat="42.52956" lon="8.74367">
        <ele>698.054443</ele>
        <time>2014-06-29T09:09:35Z</time>
      </trkpt>
      <trkpt lat="42.52952" lon="8.74367">
        <ele>698.534912</ele>
        <time>2014-06-29T09:09:42Z</time>
      </trkpt>
      <trkpt lat="42.52947" lon="8.74356">
        <ele>699.977051</ele>
        <time>2014-06-29T09:09:55Z</time>
      </trkpt>
      <trkpt lat="42.52946" lon="8.74355">
        <ele>699.977051</ele>
        <time>2014-06-29T09:09:57Z</time>
      </trkpt>
      <trkpt lat="42.52939" lon="8.74353">
        <ele>699.977051</ele>
        <time>2014-06-29T09:10:10Z</time>
      </trkpt>
      <trkpt lat="42.52934" lon="8.74355">
        <ele>698.054443</ele>
        <time>2014-06-29T09:10:23Z</time>
      </trkpt>
      <trkpt lat="42.52927" lon="8.74351">
        <ele>695.17041</ele>
        <time>2014-06-29T09:10:38Z</time>
      </trkpt>
      <trkpt lat="42.52924" lon="8.74351">
        <ele>695.17041</ele>
        <time>2014-06-29T09:10:42Z</time>
      </trkpt>
      <trkpt lat="42.52917" lon="8.74352">
        <ele>697.093018</ele>
        <time>2014-06-29T09:10:54Z</time>
      </trkpt>
      <trkpt lat="42.52915" lon="8.74355">
        <ele>697.57373</ele>
        <time>2014-06-29T09:10:58Z</time>
      </trkpt>
      <trkpt lat="42.52908" lon="8.74357">
        <ele>698.534912</ele>
        <time>2014-06-29T09:11:11Z</time>
      </trkpt>
      <trkpt lat="42.52901" lon="8.74363">
        <ele>700.458008</ele>
        <time>2014-06-29T09:11:24Z</time>
      </trkpt>
      <trkpt lat="42.52899" lon="8.74363">
        <ele>701.419189</ele>
        <time>2014-06-29T09:11:33Z</time>
      </trkpt>
      <trkpt lat="42.52902" lon="8.74377">
        <ele>701.899902</ele>
        <time>2014-06-29T09:11:47Z</time>
      </trkpt>
      <trkpt lat="42.52894" lon="8.74379">
        <ele>703.82251</ele>
        <time>2014-06-29T09:12:02Z</time>
      </trkpt>
      <trkpt lat="42.52894" lon="8.74372">
        <ele>702.380371</ele>
        <time>2014-06-29T09:12:16Z</time>
      </trkpt>
      <trkpt lat="42.529" lon="8.74381">
        <ele>703.341797</ele>
        <time>2014-06-29T09:12:29Z</time>
      </trkpt>
      <trkpt lat="42.52903" lon="8.74388">
        <ele>703.341797</ele>
        <time>2014-06-29T09:12:42Z</time>
      </trkpt>
      <trkpt lat="42.52906" lon="8.74399">
        <ele>702.380371</ele>
        <time>2014-06-29T09:12:55Z</time>
      </trkpt>
      <trkpt lat="42.52908" lon="8.74405">
        <ele>700.938477</ele>
        <time>2014-06-29T09:13:09Z</time>
      </trkpt>
      <trkpt lat="42.52905" lon="8.74409">
        <ele>698.534912</ele>
        <time>2014-06-29T09:13:23Z</time>
      </trkpt>
      <trkpt lat="42.52902" lon="8.74412">
        <ele>698.534912</ele>
        <time>2014-06-29T09:13:37Z</time>
      </trkpt>
      <trkpt lat="42.52894" lon="8.74409">
        <ele>695.17041</ele>
        <time>2014-06-29T09:13:50Z</time>
      </trkpt>
      <trkpt lat="42.52886" lon="8.74413">
        <ele>692.286621</ele>
        <time>2014-06-29T09:14:05Z</time>
      </trkpt>
      <trkpt lat="42.52884" lon="8.74418">
        <ele>691.805908</ele>
        <time>2014-06-29T09:14:11Z</time>
      </trkpt>
      <trkpt lat="42.52883" lon="8.74427">
        <ele>692.286621</ele>
        <time>2014-06-29T09:14:28Z</time>
      </trkpt>
      <trkpt lat="42.52882" lon="8.74434">
        <ele>689.402588</ele>
        <time>2014-06-29T09:14:42Z</time>
      </trkpt>
      <trkpt lat="42.52882" lon="8.74435">
        <ele>689.402588</ele>
        <time>2014-06-29T09:14:43Z</time>
      </trkpt>
      <trkpt lat="42.52876" lon="8.74436">
        <ele>688.441406</ele>
        <time>2014-06-29T09:14:57Z</time>
      </trkpt>
      <trkpt lat="42.5287" lon="8.74436">
        <ele>686.999268</ele>
        <time>2014-06-29T09:15:10Z</time>
      </trkpt>
      <trkpt lat="42.52867" lon="8.74444">
        <ele>684.596191</ele>
        <time>2014-06-29T09:15:24Z</time>
      </trkpt>
      <trkpt lat="42.52867" lon="8.74446">
        <ele>684.115479</ele>
        <time>2014-06-29T09:15:26Z</time>
      </trkpt>
      <trkpt lat="42.52865" lon="8.7446">
        <ele>683.153809</ele>
        <time>2014-06-29T09:15:41Z</time>
      </trkpt>
      <trkpt lat="42.52865" lon="8.74464">
        <ele>681.711914</ele>
        <time>2014-06-29T09:15:46Z</time>
      </trkpt>
      <trkpt lat="42.52868" lon="8.7447">
        <ele>681.711914</ele>
        <time>2014-06-29T09:15:52Z</time>
      </trkpt>
      <trkpt lat="42.52871" lon="8.74475">
        <ele>681.711914</ele>
        <time>2014-06-29T09:16:05Z</time>
      </trkpt>
      <trkpt lat="42.52871" lon="8.74475">
        <ele>681.231445</ele>
        <time>2014-06-29T09:16:06Z</time>
      </trkpt>
      <trkpt lat="42.52868" lon="8.74488">
        <ele>679.308594</ele>
        <time>2014-06-29T09:16:21Z</time>
      </trkpt>
      <trkpt lat="42.52866" lon="8.74498">
        <ele>677.38623</ele>
        <time>2014-06-29T09:16:35Z</time>
      </trkpt>
      <trkpt lat="42.52862" lon="8.74502">
        <ele>675.463379</ele>
        <time>2014-06-29T09:16:46Z</time>
      </trkpt>
      <trkpt lat="42.52855" lon="8.74506">
        <ele>674.021484</ele>
        <time>2014-06-29T09:17:00Z</time>
      </trkpt>
      <trkpt lat="42.5285" lon="8.74512">
        <ele>672.098877</ele>
        <time>2014-06-29T09:17:13Z</time>
      </trkpt>
      <trkpt lat="42.52847" lon="8.74523">
        <ele>671.137695</ele>
        <time>2014-06-29T09:17:28Z</time>
      </trkpt>
      <trkpt lat="42.52844" lon="8.74524">
        <ele>670.17627</ele>
        <time>2014-06-29T09:17:34Z</time>
      </trkpt>
      <trkpt lat="42.52837" lon="8.74525">
        <ele>668.253662</ele>
        <time>2014-06-29T09:17:48Z</time>
      </trkpt>
      <trkpt lat="42.52831" lon="8.74529">
        <ele>666.330811</ele>
        <time>2014-06-29T09:18:04Z</time>
      </trkpt>
      <trkpt lat="42.52825" lon="8.74537">
        <ele>663.92749</ele>
        <time>2014-06-29T09:18:22Z</time>
      </trkpt>
      <trkpt lat="42.52821" lon="8.74539">
        <ele>662.485596</ele>
        <time>2014-06-29T09:18:31Z</time>
      </trkpt>
      <trkpt lat="42.52818" lon="8.74543">
        <ele>659.121094</ele>
        <time>2014-06-29T09:18:43Z</time>
      </trkpt>
      <trkpt lat="42.52815" lon="8.74547">
        <ele>657.198486</ele>
        <time>2014-06-29T09:18:53Z</time>
      </trkpt>
      <trkpt lat="42.52811" lon="8.74552">
        <ele>654.795166</ele>
        <time>2014-06-29T09:19:08Z</time>
      </trkpt>
      <trkpt lat="42.52809" lon="8.74558">
        <ele>652.872559</ele>
        <time>2014-06-29T09:19:22Z</time>
      </trkpt>
      <trkpt lat="42.52811" lon="8.74567">
        <ele>651.43042</ele>
        <time>2014-06-29T09:19:36Z</time>
      </trkpt>
      <trkpt lat="42.52813" lon="8.74573">
        <ele>653.353271</ele>
        <time>2014-06-29T09:19:42Z</time>
      </trkpt>
      <trkpt lat="42.52816" lon="8.74585">
        <ele>655.756592</ele>
        <time>2014-06-29T09:19:56Z</time>
      </trkpt>
      <trkpt lat="42.52817" lon="8.74586">
        <ele>655.756592</ele>
        <time>2014-06-29T09:19:57Z</time>
      </trkpt>
      <trkpt lat="42.52823" lon="8.74592">
        <ele>654.314697</ele>
        <time>2014-06-29T09:20:08Z</time>
      </trkpt>
      <trkpt lat="42.52825" lon="8.74598">
        <ele>652.872559</ele>
        <time>2014-06-29T09:20:16Z</time>
      </trkpt>
      <trkpt lat="42.52828" lon="8.74608">
        <ele>649.507813</ele>
        <time>2014-06-29T09:20:29Z</time>
      </trkpt>
      <trkpt lat="42.52833" lon="8.74611">
        <ele>649.988525</ele>
        <time>2014-06-29T09:20:36Z</time>
      </trkpt>
      <trkpt lat="42.52837" lon="8.74617">
        <ele>650.949707</ele>
        <time>2014-06-29T09:20:42Z</time>
      </trkpt>
      <trkpt lat="42.52837" lon="8.74634">
        <ele>648.546387</ele>
        <time>2014-06-29T09:20:58Z</time>
      </trkpt>
      <trkpt lat="42.52828" lon="8.74646">
        <ele>647.585205</ele>
        <time>2014-06-29T09:21:14Z</time>
      </trkpt>
      <trkpt lat="42.52822" lon="8.74651">
        <ele>645.662598</ele>
        <time>2014-06-29T09:21:28Z</time>
      </trkpt>
      <trkpt lat="42.52818" lon="8.74652">
        <ele>644.701172</ele>
        <time>2014-06-29T09:21:40Z</time>
      </trkpt>
      <trkpt lat="42.52811" lon="8.7466">
        <ele>642.298096</ele>
        <time>2014-06-29T09:21:54Z</time>
      </trkpt>
      <trkpt lat="42.52809" lon="8.7466">
        <ele>641.33667</ele>
        <time>2014-06-29T09:21:56Z</time>
      </trkpt>
      <trkpt lat="42.52805" lon="8.7466">
        <ele>639.894775</ele>
        <time>2014-06-29T09:22:08Z</time>
      </trkpt>
      <trkpt lat="42.52803" lon="8.74665">
        <ele>638.452881</ele>
        <time>2014-06-29T09:22:23Z</time>
      </trkpt>
      <trkpt lat="42.52801" lon="8.7467">
        <ele>636.049561</ele>
        <time>2014-06-29T09:22:35Z</time>
      </trkpt>
      <trkpt lat="42.52797" lon="8.74674">
        <ele>634.126709</ele>
        <time>2014-06-29T09:22:47Z</time>
      </trkpt>
      <trkpt lat="42.52793" lon="8.74682">
        <ele>632.684814</ele>
        <time>2014-06-29T09:23:03Z</time>
      </trkpt>
      <trkpt lat="42.52793" lon="8.74689">
        <ele>632.204102</ele>
        <time>2014-06-29T09:23:10Z</time>
      </trkpt>
      <trkpt lat="42.52795" lon="8.74698">
        <ele>630.762207</ele>
        <time>2014-06-29T09:23:20Z</time>
      </trkpt>
      <trkpt lat="42.52793" lon="8.74705">
        <ele>629.320068</ele>
        <time>2014-06-29T09:23:33Z</time>
      </trkpt>
      <trkpt lat="42.52786" lon="8.74711">
        <ele>626.436279</ele>
        <time>2014-06-29T09:23:48Z</time>
      </trkpt>
      <trkpt lat="42.52783" lon="8.74718">
        <ele>624.513672</ele>
        <time>2014-06-29T09:24:01Z</time>
      </trkpt>
      <trkpt lat="42.52777" lon="8.74714">
        <ele>622.591064</ele>
        <time>2014-06-29T09:24:15Z</time>
      </trkpt>
      <trkpt lat="42.52775" lon="8.74716">
        <ele>621.14917</ele>
        <time>2014-06-29T09:24:24Z</time>
      </trkpt>
      <trkpt lat="42.52775" lon="8.74716">
        <ele>620.668457</ele>
        <time>2014-06-29T09:24:28Z</time>
      </trkpt>
      <trkpt lat="42.52774" lon="8.74716">
        <ele>619.707031</ele>
        <time>2014-06-29T09:24:44Z</time>
      </trkpt>
      <trkpt lat="42.52772" lon="8.74717">
        <ele>620.187744</ele>
        <time>2014-06-29T09:24:59Z</time>
      </trkpt>
      <trkpt lat="42.52769" lon="8.74721">
        <ele>618.264893</ele>
        <time>2014-06-29T09:25:11Z</time>
      </trkpt>
      <trkpt lat="42.52768" lon="8.74733">
        <ele>616.822998</ele>
        <time>2014-06-29T09:25:26Z</time>
      </trkpt>
      <trkpt lat="42.52763" lon="8.74737">
        <ele>616.342285</ele>
        <time>2014-06-29T09:25:39Z</time>
      </trkpt>
      <trkpt lat="42.52761" lon="8.74741">
        <ele>614.419678</ele>
        <time>2014-06-29T09:25:51Z</time>
      </trkpt>
      <trkpt lat="42.52764" lon="8.74749">
        <ele>612.49707</ele>
        <time>2014-06-29T09:26:02Z</time>
      </trkpt>
      <trkpt lat="42.52769" lon="8.74758">
        <ele>610.09375</ele>
        <time>2014-06-29T09:26:16Z</time>
      </trkpt>
      <trkpt lat="42.52772" lon="8.74765">
        <ele>609.613281</ele>
        <time>2014-06-29T09:26:35Z</time>
      </trkpt>
      <trkpt lat="42.5277" lon="8.7477">
        <ele>609.132568</ele>
        <time>2014-06-29T09:26:50Z</time>
      </trkpt>
      <trkpt lat="42.52765" lon="8.74778">
        <ele>605.768066</ele>
        <time>2014-06-29T09:27:05Z</time>
      </trkpt>
      <trkpt lat="42.5277" lon="8.74786">
        <ele>603.364502</ele>
        <time>2014-06-29T09:27:20Z</time>
      </trkpt>
      <trkpt lat="42.52769" lon="8.74793">
        <ele>601.441895</ele>
        <time>2014-06-29T09:27:34Z</time>
      </trkpt>
      <trkpt lat="42.52764" lon="8.74801">
        <ele>598.557861</ele>
        <time>2014-06-29T09:27:49Z</time>
      </trkpt>
      <trkpt lat="42.52768" lon="8.74803">
        <ele>597.115967</ele>
        <time>2014-06-29T09:28:04Z</time>
      </trkpt>
      <trkpt lat="42.52768" lon="8.74811">
        <ele>594.712646</ele>
        <time>2014-06-29T09:28:20Z</time>
      </trkpt>
      <trkpt lat="42.52768" lon="8.74818">
        <ele>592.30957</ele>
        <time>2014-06-29T09:28:35Z</time>
      </trkpt>
      <trkpt lat="42.52768" lon="8.74824">
        <ele>588.945068</ele>
        <time>2014-06-29T09:28:51Z</time>
      </trkpt>
      <trkpt lat="42.52771" lon="8.74827">
        <ele>586.060791</ele>
        <time>2014-06-29T09:29:00Z</time>
      </trkpt>
      <trkpt lat="42.52774" lon="8.74833">
        <ele>585.099609</ele>
        <time>2014-06-29T09:29:13Z</time>
      </trkpt>
      <trkpt lat="42.52778" lon="8.74838">
        <ele>581.734863</ele>
        <time>2014-06-29T09:29:25Z</time>
      </trkpt>
      <trkpt lat="42.52778" lon="8.74839">
        <ele>581.254395</ele>
        <time>2014-06-29T09:29:26Z</time>
      </trkpt>
      <trkpt lat="42.52777" lon="8.74845">
        <ele>578.851074</ele>
        <time>2014-06-29T09:29:36Z</time>
      </trkpt>
      <trkpt lat="42.5278" lon="8.7485">
        <ele>577.889648</ele>
        <time>2014-06-29T09:29:50Z</time>
      </trkpt>
      <trkpt lat="42.52781" lon="8.74851">
        <ele>577.40918</ele>
        <time>2014-06-29T09:30:04Z</time>
      </trkpt>
      <trkpt lat="42.52782" lon="8.74859">
        <ele>574.525146</ele>
        <time>2014-06-29T09:30:17Z</time>
      </trkpt>
      <trkpt lat="42.52779" lon="8.74866">
        <ele>573.083252</ele>
        <time>2014-06-29T09:30:32Z</time>
      </trkpt>
      <trkpt lat="42.52781" lon="8.74871">
        <ele>570.198975</ele>
        <time>2014-06-29T09:30:48Z</time>
      </trkpt>
      <trkpt lat="42.52784" lon="8.74876">
        <ele>569.237793</ele>
        <time>2014-06-29T09:31:05Z</time>
      </trkpt>
      <trkpt lat="42.52788" lon="8.74877">
        <ele>565.873291</ele>
        <time>2014-06-29T09:31:16Z</time>
      </trkpt>
      <trkpt lat="42.52787" lon="8.74887">
        <ele>563.950439</ele>
        <time>2014-06-29T09:31:30Z</time>
      </trkpt>
      <trkpt lat="42.52788" lon="8.7489">
        <ele>561.547363</ele>
        <time>2014-06-29T09:31:38Z</time>
      </trkpt>
      <trkpt lat="42.5279" lon="8.74893">
        <ele>560.105225</ele>
        <time>2014-06-29T09:31:52Z</time>
      </trkpt>
      <trkpt lat="42.52786" lon="8.74899">
        <ele>558.66333</ele>
        <time>2014-06-29T09:32:07Z</time>
      </trkpt>
      <trkpt lat="42.52784" lon="8.74903">
        <ele>556.26001</ele>
        <time>2014-06-29T09:32:20Z</time>
      </trkpt>
      <trkpt lat="42.52783" lon="8.74908">
        <ele>554.817871</ele>
        <time>2014-06-29T09:32:33Z</time>
      </trkpt>
      <trkpt lat="42.52781" lon="8.74914">
        <ele>552.895264</ele>
        <time>2014-06-29T09:32:48Z</time>
      </trkpt>
      <trkpt lat="42.52777" lon="8.7492">
        <ele>550.972656</ele>
        <time>2014-06-29T09:33:04Z</time>
      </trkpt>
      <trkpt lat="42.52778" lon="8.74928">
        <ele>547.608154</ele>
        <time>2014-06-29T09:33:19Z</time>
      </trkpt>
      <trkpt lat="42.5277" lon="8.74941">
        <ele>547.127441</ele>
        <time>2014-06-29T09:33:37Z</time>
      </trkpt>
      <trkpt lat="42.5277" lon="8.7495">
        <ele>545.685547</ele>
        <time>2014-06-29T09:33:51Z</time>
      </trkpt>
      <trkpt lat="42.52772" lon="8.74957">
        <ele>544.243652</ele>
        <time>2014-06-29T09:34:07Z</time>
      </trkpt>
      <trkpt lat="42.52776" lon="8.74957">
        <ele>542.320923</ele>
        <time>2014-06-29T09:34:27Z</time>
      </trkpt>
      <trkpt lat="42.5278" lon="8.74962">
        <ele>539.43689</ele>
        <time>2014-06-29T09:34:41Z</time>
      </trkpt>
      <trkpt lat="42.52782" lon="8.74967">
        <ele>537.514282</ele>
        <time>2014-06-29T09:34:54Z</time>
      </trkpt>
      <trkpt lat="42.52785" lon="8.74968">
        <ele>535.110962</ele>
        <time>2014-06-29T09:35:06Z</time>
      </trkpt>
      <trkpt lat="42.52792" lon="8.74967">
        <ele>532.707764</ele>
        <time>2014-06-29T09:35:21Z</time>
      </trkpt>
      <trkpt lat="42.52794" lon="8.74974">
        <ele>531.265747</ele>
        <time>2014-06-29T09:35:32Z</time>
      </trkpt>
      <trkpt lat="42.52795" lon="8.74988">
        <ele>529.82373</ele>
        <time>2014-06-29T09:35:45Z</time>
      </trkpt>
      <trkpt lat="42.52797" lon="8.74994">
        <ele>526.939819</ele>
        <time>2014-06-29T09:35:57Z</time>
      </trkpt>
      <trkpt lat="42.52802" lon="8.74996">
        <ele>524.055786</ele>
        <time>2014-06-29T09:36:10Z</time>
      </trkpt>
      <trkpt lat="42.52805" lon="8.74995">
        <ele>522.133179</ele>
        <time>2014-06-29T09:36:18Z</time>
      </trkpt>
      <trkpt lat="42.52809" lon="8.74997">
        <ele>519.249268</ele>
        <time>2014-06-29T09:36:33Z</time>
      </trkpt>
      <trkpt lat="42.52814" lon="8.75002">
        <ele>518.768555</ele>
        <time>2014-06-29T09:36:46Z</time>
      </trkpt>
      <trkpt lat="42.52818" lon="8.75006">
        <ele>515.404053</ele>
        <time>2014-06-29T09:37:01Z</time>
      </trkpt>
      <trkpt lat="42.52822" lon="8.75008">
        <ele>513.000732</ele>
        <time>2014-06-29T09:37:15Z</time>
      </trkpt>
      <trkpt lat="42.52827" lon="8.75013">
        <ele>511.078003</ele>
        <time>2014-06-29T09:37:32Z</time>
      </trkpt>
      <trkpt lat="42.52831" lon="8.75013">
        <ele>508.674683</ele>
        <time>2014-06-29T09:37:44Z</time>
      </trkpt>
      <trkpt lat="42.52837" lon="8.75018">
        <ele>506.752075</ele>
        <time>2014-06-29T09:37:59Z</time>
      </trkpt>
      <trkpt lat="42.52842" lon="8.7502">
        <ele>504.348877</ele>
        <time>2014-06-29T09:38:13Z</time>
      </trkpt>
      <trkpt lat="42.52844" lon="8.75028">
        <ele>501.945557</ele>
        <time>2014-06-29T09:38:29Z</time>
      </trkpt>
      <trkpt lat="42.52848" lon="8.75038">
        <ele>500.50354</ele>
        <time>2014-06-29T09:38:46Z</time>
      </trkpt>
      <trkpt lat="42.52853" lon="8.75043">
        <ele>498.100342</ele>
        <time>2014-06-29T09:38:56Z</time>
      </trkpt>
      <trkpt lat="42.5286" lon="8.75051">
        <ele>496.177734</ele>
        <time>2014-06-29T09:39:12Z</time>
      </trkpt>
      <trkpt lat="42.52868" lon="8.75058">
        <ele>494.255005</ele>
        <time>2014-06-29T09:39:25Z</time>
      </trkpt>
      <trkpt lat="42.52869" lon="8.75066">
        <ele>495.216187</ele>
        <time>2014-06-29T09:39:38Z</time>
      </trkpt>
      <trkpt lat="42.5287" lon="8.75069">
        <ele>493.774292</ele>
        <time>2014-06-29T09:39:41Z</time>
      </trkpt>
      <trkpt lat="42.52875" lon="8.75081">
        <ele>491.370972</ele>
        <time>2014-06-29T09:39:55Z</time>
      </trkpt>
      <trkpt lat="42.52875" lon="8.75081">
        <ele>491.370972</ele>
        <time>2014-06-29T09:39:56Z</time>
      </trkpt>
      <trkpt lat="42.5288" lon="8.75088">
        <ele>488.967773</ele>
        <time>2014-06-29T09:40:05Z</time>
      </trkpt>
      <trkpt lat="42.52886" lon="8.75097">
        <ele>486.564453</ele>
        <time>2014-06-29T09:40:18Z</time>
      </trkpt>
      <trkpt lat="42.52888" lon="8.75104">
        <ele>483.199829</ele>
        <time>2014-06-29T09:40:26Z</time>
      </trkpt>
      <trkpt lat="42.52894" lon="8.75112">
        <ele>479.835083</ele>
        <time>2014-06-29T09:40:37Z</time>
      </trkpt>
      <trkpt lat="42.52899" lon="8.75118">
        <ele>477.431885</ele>
        <time>2014-06-29T09:40:49Z</time>
      </trkpt>
      <trkpt lat="42.52902" lon="8.7512">
        <ele>475.989868</ele>
        <time>2014-06-29T09:40:54Z</time>
      </trkpt>
      <trkpt lat="42.52905" lon="8.75125">
        <ele>474.067261</ele>
        <time>2014-06-29T09:41:04Z</time>
      </trkpt>
      <trkpt lat="42.52909" lon="8.75128">
        <ele>471.66394</ele>
        <time>2014-06-29T09:41:11Z</time>
      </trkpt>
      <trkpt lat="42.5291" lon="8.75138">
        <ele>469.260742</ele>
        <time>2014-06-29T09:41:25Z</time>
      </trkpt>
      <trkpt lat="42.52914" lon="8.75141">
        <ele>466.857422</ele>
        <time>2014-06-29T09:41:35Z</time>
      </trkpt>
      <trkpt lat="42.52919" lon="8.7515">
        <ele>463.973389</ele>
        <time>2014-06-29T09:41:51Z</time>
      </trkpt>
      <trkpt lat="42.52928" lon="8.7516">
        <ele>462.050781</ele>
        <time>2014-06-29T09:42:09Z</time>
      </trkpt>
      <trkpt lat="42.5293" lon="8.75164">
        <ele>459.647583</ele>
        <time>2014-06-29T09:42:16Z</time>
      </trkpt>
      <trkpt lat="42.52935" lon="8.7517">
        <ele>457.244263</ele>
        <time>2014-06-29T09:42:31Z</time>
      </trkpt>
      <trkpt lat="42.52937" lon="8.75174">
        <ele>455.321533</ele>
        <time>2014-06-29T09:42:43Z</time>
      </trkpt>
      <trkpt lat="42.5294" lon="8.75176">
        <ele>453.879639</ele>
        <time>2014-06-29T09:43:18Z</time>
      </trkpt>
      <trkpt lat="42.52947" lon="8.75181">
        <ele>450.515015</ele>
        <time>2014-06-29T09:43:32Z</time>
      </trkpt>
      <trkpt lat="42.52952" lon="8.75188">
        <ele>448.592407</ele>
        <time>2014-06-29T09:43:46Z</time>
      </trkpt>
      <trkpt lat="42.52954" lon="8.75198">
        <ele>445.708374</ele>
        <time>2014-06-29T09:44:03Z</time>
      </trkpt>
      <trkpt lat="42.52956" lon="8.75205">
        <ele>443.305054</ele>
        <time>2014-06-29T09:44:17Z</time>
      </trkpt>
      <trkpt lat="42.5296" lon="8.75213">
        <ele>439.94043</ele>
        <time>2014-06-29T09:44:31Z</time>
      </trkpt>
      <trkpt lat="42.52964" lon="8.75223">
        <ele>436.575928</ele>
        <time>2014-06-29T09:44:49Z</time>
      </trkpt>
      <trkpt lat="42.52969" lon="8.75226">
        <ele>436.095215</ele>
        <time>2014-06-29T09:45:02Z</time>
      </trkpt>
      <trkpt lat="42.5297" lon="8.75236">
        <ele>433.691895</ele>
        <time>2014-06-29T09:45:17Z</time>
      </trkpt>
      <trkpt lat="42.52973" lon="8.7524">
        <ele>430.807983</ele>
        <time>2014-06-29T09:45:25Z</time>
      </trkpt>
      <trkpt lat="42.52978" lon="8.75242">
        <ele>428.404663</ele>
        <time>2014-06-29T09:45:39Z</time>
      </trkpt>
      <trkpt lat="42.52983" lon="8.75249">
        <ele>426.482056</ele>
        <time>2014-06-29T09:45:55Z</time>
      </trkpt>
      <trkpt lat="42.52988" lon="8.75252">
        <ele>425.040161</ele>
        <time>2014-06-29T09:46:11Z</time>
      </trkpt>
      <trkpt lat="42.52991" lon="8.75259">
        <ele>423.117432</ele>
        <time>2014-06-29T09:46:25Z</time>
      </trkpt>
      <trkpt lat="42.53" lon="8.75262">
        <ele>420.233398</ele>
        <time>2014-06-29T09:46:41Z</time>
      </trkpt>
      <trkpt lat="42.5301" lon="8.75265">
        <ele>418.310791</ele>
        <time>2014-06-29T09:46:55Z</time>
      </trkpt>
      <trkpt lat="42.53014" lon="8.75269">
        <ele>416.868896</ele>
        <time>2014-06-29T09:47:01Z</time>
      </trkpt>
      <trkpt lat="42.5302" lon="8.75272">
        <ele>414.465454</ele>
        <time>2014-06-29T09:47:14Z</time>
      </trkpt>
      <trkpt lat="42.53023" lon="8.75275">
        <ele>413.984863</ele>
        <time>2014-06-29T09:47:28Z</time>
      </trkpt>
      <trkpt lat="42.53023" lon="8.75276">
        <ele>413.984863</ele>
        <time>2014-06-29T09:47:42Z</time>
      </trkpt>
      <trkpt lat="42.53024" lon="8.75278">
        <ele>413.984863</ele>
        <time>2014-06-29T09:48:03Z</time>
      </trkpt>
    </trkseg>
  </trk>
  <trk>
    <name><![CDATA[ACTIVE LOG 011]]></name>
    <trkseg>
      <trkpt lat="42.53023" lon="8.75275">
        <ele>409.659058</ele>
        <time>2014-06-29T09:48:35Z</time>
      </trkpt>
    </trkseg>
  </trk>
  <trk>
    <name><![CDATA[ACTIVE LOG 012]]></name>
    <trkseg>
      <trkpt lat="42.5301" lon="8.75253">
        <ele>408.697632</ele>
        <time>2014-06-29T09:48:36Z</time>
      </trkpt>
      <trkpt lat="42.53024" lon="8.75276">
        <ele>407.736328</ele>
        <time>2014-06-29T09:49:14Z</time>
      </trkpt>
      <trkpt lat="42.53021" lon="8.75279">
        <ele>408.217041</ele>
        <time>2014-06-29T09:49:42Z</time>
      </trkpt>
      <trkpt lat="42.53022" lon="8.75277">
        <ele>407.736328</ele>
        <time>2014-06-29T09:49:59Z</time>
      </trkpt>
      <trkpt lat="42.53022" lon="8.75277">
        <ele>408.217041</ele>
        <time>2014-06-29T09:50:19Z</time>
      </trkpt>
      <trkpt lat="42.53025" lon="8.75275">
        <ele>408.697632</ele>
        <time>2014-06-29T09:50:39Z</time>
      </trkpt>
      <trkpt lat="42.53031" lon="8.75277">
        <ele>405.813721</ele>
        <time>2014-06-29T09:50:54Z</time>
      </trkpt>
      <trkpt lat="42.53034" lon="8.75278">
        <ele>405.333008</ele>
        <time>2014-06-29T09:50:58Z</time>
      </trkpt>
      <trkpt lat="42.53046" lon="8.75286">
        <ele>402.929688</ele>
        <time>2014-06-29T09:51:14Z</time>
      </trkpt>
      <trkpt lat="42.53054" lon="8.75292">
        <ele>399.565063</ele>
        <time>2014-06-29T09:51:26Z</time>
      </trkpt>
      <trkpt lat="42.53058" lon="8.75289">
        <ele>398.123169</ele>
        <time>2014-06-29T09:51:31Z</time>
      </trkpt>
      <trkpt lat="42.53066" lon="8.75282">
        <ele>397.642456</ele>
        <time>2014-06-29T09:51:44Z</time>
      </trkpt>
      <trkpt lat="42.5307" lon="8.75283">
        <ele>395.719849</ele>
        <time>2014-06-29T09:51:51Z</time>
      </trkpt>
      <trkpt lat="42.53078" lon="8.75286">
        <ele>393.316528</ele>
        <time>2014-06-29T09:52:06Z</time>
      </trkpt>
      <trkpt lat="42.53087" lon="8.75287">
        <ele>391.874512</ele>
        <time>2014-06-29T09:52:22Z</time>
      </trkpt>
      <trkpt lat="42.53098" lon="8.75283">
        <ele>390.432617</ele>
        <time>2014-06-29T09:52:37Z</time>
      </trkpt>
      <trkpt lat="42.53105" lon="8.75283">
        <ele>388.029297</ele>
        <time>2014-06-29T09:52:50Z</time>
      </trkpt>
      <trkpt lat="42.53112" lon="8.75284">
        <ele>384.664795</ele>
        <time>2014-06-29T09:53:05Z</time>
      </trkpt>
      <trkpt lat="42.53122" lon="8.75279">
        <ele>383.222656</ele>
        <time>2014-06-29T09:53:21Z</time>
      </trkpt>
      <trkpt lat="42.53132" lon="8.75279">
        <ele>381.78064</ele>
        <time>2014-06-29T09:53:40Z</time>
      </trkpt>
      <trkpt lat="42.53134" lon="8.75278">
        <ele>379.377441</ele>
        <time>2014-06-29T09:53:44Z</time>
      </trkpt>
      <trkpt lat="42.53135" lon="8.75278">
        <ele>378.416138</ele>
        <time>2014-06-29T09:53:48Z</time>
      </trkpt>
      <trkpt lat="42.53143" lon="8.75278">
        <ele>375.532104</ele>
        <time>2014-06-29T09:54:04Z</time>
      </trkpt>
      <trkpt lat="42.5315" lon="8.75279">
        <ele>372.16748</ele>
        <time>2014-06-29T09:54:20Z</time>
      </trkpt>
      <trkpt lat="42.53156" lon="8.75277">
        <ele>369.283691</ele>
        <time>2014-06-29T09:54:31Z</time>
      </trkpt>
      <trkpt lat="42.53163" lon="8.75276">
        <ele>367.841553</ele>
        <time>2014-06-29T09:54:44Z</time>
      </trkpt>
      <trkpt lat="42.53173" lon="8.75278">
        <ele>364.476929</ele>
        <time>2014-06-29T09:55:00Z</time>
      </trkpt>
      <trkpt lat="42.53174" lon="8.75278">
        <ele>364.476929</ele>
        <time>2014-06-29T09:55:01Z</time>
      </trkpt>
      <trkpt lat="42.53176" lon="8.75278">
        <ele>366.399536</ele>
        <time>2014-06-29T09:55:04Z</time>
      </trkpt>
      <trkpt lat="42.53178" lon="8.75278">
        <ele>364.476929</ele>
        <time>2014-06-29T09:55:07Z</time>
      </trkpt>
      <trkpt lat="42.53187" lon="8.75275">
        <ele>362.07373</ele>
        <time>2014-06-29T09:55:23Z</time>
      </trkpt>
      <trkpt lat="42.5319" lon="8.75273">
        <ele>361.59314</ele>
        <time>2014-06-29T09:55:27Z</time>
      </trkpt>
      <trkpt lat="42.53199" lon="8.75268">
        <ele>361.59314</ele>
        <time>2014-06-29T09:55:43Z</time>
      </trkpt>
      <trkpt lat="42.53205" lon="8.75267">
        <ele>360.631714</ele>
        <time>2014-06-29T09:55:57Z</time>
      </trkpt>
      <trkpt lat="42.53216" lon="8.75266">
        <ele>359.189697</ele>
        <time>2014-06-29T09:56:10Z</time>
      </trkpt>
      <trkpt lat="42.53223" lon="8.75264">
        <ele>359.189697</ele>
        <time>2014-06-29T09:56:19Z</time>
      </trkpt>
      <trkpt lat="42.5323" lon="8.75256">
        <ele>357.747803</ele>
        <time>2014-06-29T09:56:34Z</time>
      </trkpt>
      <trkpt lat="42.53237" lon="8.75251">
        <ele>356.786377</ele>
        <time>2014-06-29T09:56:49Z</time>
      </trkpt>
      <trkpt lat="42.53241" lon="8.7525">
        <ele>353.902588</ele>
        <time>2014-06-29T09:56:55Z</time>
      </trkpt>
      <trkpt lat="42.5325" lon="8.75242">
        <ele>352.460571</ele>
        <time>2014-06-29T09:57:14Z</time>
      </trkpt>
      <trkpt lat="42.53256" lon="8.75234">
        <ele>350.537842</ele>
        <time>2014-06-29T09:57:30Z</time>
      </trkpt>
      <trkpt lat="42.53263" lon="8.75228">
        <ele>347.173218</ele>
        <time>2014-06-29T09:57:41Z</time>
      </trkpt>
      <trkpt lat="42.53271" lon="8.75226">
        <ele>345.25061</ele>
        <time>2014-06-29T09:57:57Z</time>
      </trkpt>
      <trkpt lat="42.53275" lon="8.75222">
        <ele>343.327881</ele>
        <time>2014-06-29T09:58:12Z</time>
      </trkpt>
      <trkpt lat="42.5328" lon="8.75218">
        <ele>340.924683</ele>
        <time>2014-06-29T09:58:28Z</time>
      </trkpt>
      <trkpt lat="42.53289" lon="8.75216">
        <ele>339.002075</ele>
        <time>2014-06-29T09:58:43Z</time>
      </trkpt>
      <trkpt lat="42.53293" lon="8.75212">
        <ele>337.560059</ele>
        <time>2014-06-29T09:58:57Z</time>
      </trkpt>
      <trkpt lat="42.53297" lon="8.75211">
        <ele>335.637329</ele>
        <time>2014-06-29T09:59:06Z</time>
      </trkpt>
      <trkpt lat="42.53301" lon="8.75209">
        <ele>334.195435</ele>
        <time>2014-06-29T09:59:21Z</time>
      </trkpt>
      <trkpt lat="42.53306" lon="8.75204">
        <ele>331.311523</ele>
        <time>2014-06-29T09:59:38Z</time>
      </trkpt>
      <trkpt lat="42.5331" lon="8.75202">
        <ele>328.908325</ele>
        <time>2014-06-29T09:59:45Z</time>
      </trkpt>
      <trkpt lat="42.53317" lon="8.75203">
        <ele>326.985596</ele>
        <time>2014-06-29T10:00:01Z</time>
      </trkpt>
      <trkpt lat="42.53322" lon="8.75206">
        <ele>325.543579</ele>
        <time>2014-06-29T10:00:12Z</time>
      </trkpt>
      <trkpt lat="42.53331" lon="8.752">
        <ele>322.659668</ele>
        <time>2014-06-29T10:00:26Z</time>
      </trkpt>
      <trkpt lat="42.53336" lon="8.75193">
        <ele>321.698364</ele>
        <time>2014-06-29T10:00:42Z</time>
      </trkpt>
      <trkpt lat="42.53344" lon="8.75186">
        <ele>320.256348</ele>
        <time>2014-06-29T10:00:57Z</time>
      </trkpt>
      <trkpt lat="42.53345" lon="8.75182">
        <ele>318.814331</ele>
        <time>2014-06-29T10:01:04Z</time>
      </trkpt>
      <trkpt lat="42.53347" lon="8.75177">
        <ele>318.333618</ele>
        <time>2014-06-29T10:01:11Z</time>
      </trkpt>
      <trkpt lat="42.53349" lon="8.75175">
        <ele>317.372437</ele>
        <time>2014-06-29T10:01:24Z</time>
      </trkpt>
      <trkpt lat="42.53354" lon="8.75173">
        <ele>316.891724</ele>
        <time>2014-06-29T10:01:37Z</time>
      </trkpt>
      <trkpt lat="42.5336" lon="8.75171">
        <ele>315.93042</ele>
        <time>2014-06-29T10:01:50Z</time>
      </trkpt>
      <trkpt lat="42.53367" lon="8.75172">
        <ele>313.046509</ele>
        <time>2014-06-29T10:02:05Z</time>
      </trkpt>
      <trkpt lat="42.5337" lon="8.75171">
        <ele>312.565796</ele>
        <time>2014-06-29T10:02:17Z</time>
      </trkpt>
      <trkpt lat="42.53375" lon="8.75171">
        <ele>310.643066</ele>
        <time>2014-06-29T10:02:32Z</time>
      </trkpt>
      <trkpt lat="42.5338" lon="8.75172">
        <ele>307.759277</ele>
        <time>2014-06-29T10:02:45Z</time>
      </trkpt>
      <trkpt lat="42.53381" lon="8.75176">
        <ele>306.797852</ele>
        <time>2014-06-29T10:02:53Z</time>
      </trkpt>
      <trkpt lat="42.5339" lon="8.75175">
        <ele>303.433228</ele>
        <time>2014-06-29T10:03:07Z</time>
      </trkpt>
      <trkpt lat="42.53397" lon="8.75181">
        <ele>300.549316</ele>
        <time>2014-06-29T10:03:20Z</time>
      </trkpt>
      <trkpt lat="42.53402" lon="8.75183">
        <ele>298.146118</ele>
        <time>2014-06-29T10:03:34Z</time>
      </trkpt>
      <trkpt lat="42.53409" lon="8.75184">
        <ele>296.223511</ele>
        <time>2014-06-29T10:03:46Z</time>
      </trkpt>
      <trkpt lat="42.53417" lon="8.75188">
        <ele>293.339355</ele>
        <time>2014-06-29T10:04:02Z</time>
      </trkpt>
      <trkpt lat="42.53421" lon="8.75191">
        <ele>292.378174</ele>
        <time>2014-06-29T10:04:12Z</time>
      </trkpt>
      <trkpt lat="42.53428" lon="8.75192">
        <ele>291.416748</ele>
        <time>2014-06-29T10:04:26Z</time>
      </trkpt>
      <trkpt lat="42.53436" lon="8.75194">
        <ele>288.532959</ele>
        <time>2014-06-29T10:04:45Z</time>
      </trkpt>
      <trkpt lat="42.53442" lon="8.75196">
        <ele>285.648804</ele>
        <time>2014-06-29T10:04:56Z</time>
      </trkpt>
      <trkpt lat="42.53449" lon="8.75197">
        <ele>283.726196</ele>
        <time>2014-06-29T10:05:14Z</time>
      </trkpt>
      <trkpt lat="42.53454" lon="8.752">
        <ele>280.842407</ele>
        <time>2014-06-29T10:05:27Z</time>
      </trkpt>
      <trkpt lat="42.5346" lon="8.75204">
        <ele>277.477661</ele>
        <time>2014-06-29T10:05:42Z</time>
      </trkpt>
      <trkpt lat="42.53461" lon="8.75204">
        <ele>277.958252</ele>
        <time>2014-06-29T10:05:43Z</time>
      </trkpt>
      <trkpt lat="42.53468" lon="8.75208">
        <ele>275.074463</ele>
        <time>2014-06-29T10:05:59Z</time>
      </trkpt>
      <trkpt lat="42.53471" lon="8.75209">
        <ele>273.632446</ele>
        <time>2014-06-29T10:06:06Z</time>
      </trkpt>
      <trkpt lat="42.53476" lon="8.75206">
        <ele>272.19043</ele>
        <time>2014-06-29T10:06:18Z</time>
      </trkpt>
      <trkpt lat="42.53481" lon="8.75205">
        <ele>268.345093</ele>
        <time>2014-06-29T10:06:28Z</time>
      </trkpt>
      <trkpt lat="42.53486" lon="8.75207">
        <ele>266.422485</ele>
        <time>2014-06-29T10:06:41Z</time>
      </trkpt>
      <trkpt lat="42.53489" lon="8.7521">
        <ele>264.019287</ele>
        <time>2014-06-29T10:07:06Z</time>
      </trkpt>
      <trkpt lat="42.53494" lon="8.75206">
        <ele>261.135254</ele>
        <time>2014-06-29T10:07:22Z</time>
      </trkpt>
      <trkpt lat="42.535" lon="8.75202">
        <ele>259.693359</ele>
        <time>2014-06-29T10:07:33Z</time>
      </trkpt>
      <trkpt lat="42.53507" lon="8.75202">
        <ele>256.328735</ele>
        <time>2014-06-29T10:07:56Z</time>
      </trkpt>
      <trkpt lat="42.53509" lon="8.75204">
        <ele>256.809326</ele>
        <time>2014-06-29T10:08:00Z</time>
      </trkpt>
      <trkpt lat="42.53513" lon="8.75206">
        <ele>253.444702</ele>
        <time>2014-06-29T10:08:14Z</time>
      </trkpt>
      <trkpt lat="42.53519" lon="8.75205">
        <ele>252.483398</ele>
        <time>2014-06-29T10:08:29Z</time>
      </trkpt>
      <trkpt lat="42.53526" lon="8.75207">
        <ele>251.522095</ele>
        <time>2014-06-29T10:08:45Z</time>
      </trkpt>
      <trkpt lat="42.5353" lon="8.75206">
        <ele>248.638184</ele>
        <time>2014-06-29T10:08:56Z</time>
      </trkpt>
      <trkpt lat="42.53536" lon="8.75201">
        <ele>248.638184</ele>
        <time>2014-06-29T10:09:08Z</time>
      </trkpt>
      <trkpt lat="42.53543" lon="8.75203">
        <ele>245.273438</ele>
        <time>2014-06-29T10:09:20Z</time>
      </trkpt>
      <trkpt lat="42.53553" lon="8.75205">
        <ele>243.35083</ele>
        <time>2014-06-29T10:09:37Z</time>
      </trkpt>
      <trkpt lat="42.53556" lon="8.75209">
        <ele>239.986206</ele>
        <time>2014-06-29T10:09:47Z</time>
      </trkpt>
      <trkpt lat="42.53561" lon="8.75214">
        <ele>239.024902</ele>
        <time>2014-06-29T10:10:01Z</time>
      </trkpt>
      <trkpt lat="42.53564" lon="8.75218">
        <ele>236.621704</ele>
        <time>2014-06-29T10:10:12Z</time>
      </trkpt>
      <trkpt lat="42.53573" lon="8.75223">
        <ele>233.737671</ele>
        <time>2014-06-29T10:10:25Z</time>
      </trkpt>
      <trkpt lat="42.53579" lon="8.75225">
        <ele>231.334351</ele>
        <time>2014-06-29T10:10:38Z</time>
      </trkpt>
      <trkpt lat="42.53585" lon="8.7523">
        <ele>228.450439</ele>
        <time>2014-06-29T10:10:51Z</time>
      </trkpt>
      <trkpt lat="42.53593" lon="8.75233">
        <ele>226.527832</ele>
        <time>2014-06-29T10:11:06Z</time>
      </trkpt>
      <trkpt lat="42.53597" lon="8.75238">
        <ele>224.605225</ele>
        <time>2014-06-29T10:11:18Z</time>
      </trkpt>
      <trkpt lat="42.53605" lon="8.7524">
        <ele>223.163208</ele>
        <time>2014-06-29T10:11:32Z</time>
      </trkpt>
      <trkpt lat="42.53609" lon="8.75244">
        <ele>220.759888</ele>
        <time>2014-06-29T10:11:50Z</time>
      </trkpt>
      <trkpt lat="42.53615" lon="8.75248">
        <ele>217.395386</ele>
        <time>2014-06-29T10:12:04Z</time>
      </trkpt>
      <trkpt lat="42.5362" lon="8.75249">
        <ele>215.472656</ele>
        <time>2014-06-29T10:12:16Z</time>
      </trkpt>
      <trkpt lat="42.53627" lon="8.75255">
        <ele>212.108032</ele>
        <time>2014-06-29T10:12:29Z</time>
      </trkpt>
      <trkpt lat="42.5363" lon="8.75257">
        <ele>211.627441</ele>
        <time>2014-06-29T10:12:36Z</time>
      </trkpt>
      <trkpt lat="42.5364" lon="8.75258">
        <ele>209.224121</ele>
        <time>2014-06-29T10:12:47Z</time>
      </trkpt>
      <trkpt lat="42.53644" lon="8.7526">
        <ele>209.224121</ele>
        <time>2014-06-29T10:12:51Z</time>
      </trkpt>
      <trkpt lat="42.53648" lon="8.7526">
        <ele>209.224121</ele>
        <time>2014-06-29T10:12:55Z</time>
      </trkpt>
      <trkpt lat="42.53656" lon="8.75268">
        <ele>206.340088</ele>
        <time>2014-06-29T10:13:05Z</time>
      </trkpt>
      <trkpt lat="42.53668" lon="8.7528">
        <ele>203.93689</ele>
        <time>2014-06-29T10:13:24Z</time>
      </trkpt>
      <trkpt lat="42.53676" lon="8.7529">
        <ele>202.014282</ele>
        <time>2014-06-29T10:13:41Z</time>
      </trkpt>
      <trkpt lat="42.53674" lon="8.75293">
        <ele>202.014282</ele>
        <time>2014-06-29T10:13:54Z</time>
      </trkpt>
      <trkpt lat="42.53675" lon="8.75301">
        <ele>199.61084</ele>
        <time>2014-06-29T10:14:11Z</time>
      </trkpt>
      <trkpt lat="42.53673" lon="8.75308">
        <ele>197.20752</ele>
        <time>2014-06-29T10:14:28Z</time>
      </trkpt>
      <trkpt lat="42.53672" lon="8.7531">
        <ele>196.726929</ele>
        <time>2014-06-29T10:14:32Z</time>
      </trkpt>
      <trkpt lat="42.53671" lon="8.75313">
        <ele>194.32373</ele>
        <time>2014-06-29T10:14:55Z</time>
      </trkpt>
      <trkpt lat="42.53675" lon="8.75316">
        <ele>193.362305</ele>
        <time>2014-06-29T10:15:16Z</time>
      </trkpt>
      <trkpt lat="42.53673" lon="8.75322">
        <ele>190.958984</ele>
        <time>2014-06-29T10:15:29Z</time>
      </trkpt>
      <trkpt lat="42.53668" lon="8.75336">
        <ele>189.516968</ele>
        <time>2014-06-29T10:16:02Z</time>
      </trkpt>
      <trkpt lat="42.53675" lon="8.75343">
        <ele>187.11377</ele>
        <time>2014-06-29T10:16:15Z</time>
      </trkpt>
      <trkpt lat="42.53675" lon="8.75344">
        <ele>187.11377</ele>
        <time>2014-06-29T10:16:16Z</time>
      </trkpt>
      <trkpt lat="42.53681" lon="8.75355">
        <ele>188.075073</ele>
        <time>2014-06-29T10:16:30Z</time>
      </trkpt>
      <trkpt lat="42.53689" lon="8.7536">
        <ele>185.671753</ele>
        <time>2014-06-29T10:16:48Z</time>
      </trkpt>
      <trkpt lat="42.53695" lon="8.75361">
        <ele>183.749023</ele>
        <time>2014-06-29T10:17:05Z</time>
      </trkpt>
      <trkpt lat="42.53698" lon="8.75367">
        <ele>182.307129</ele>
        <time>2014-06-29T10:17:17Z</time>
      </trkpt>
      <trkpt lat="42.53698" lon="8.75371">
        <ele>182.787842</ele>
        <time>2014-06-29T10:17:21Z</time>
      </trkpt>
      <trkpt lat="42.53702" lon="8.75386">
        <ele>181.826416</ele>
        <time>2014-06-29T10:17:33Z</time>
      </trkpt>
      <trkpt lat="42.53709" lon="8.7539">
        <ele>178.942627</ele>
        <time>2014-06-29T10:17:48Z</time>
      </trkpt>
      <trkpt lat="42.53716" lon="8.75394">
        <ele>177.02002</ele>
        <time>2014-06-29T10:18:04Z</time>
      </trkpt>
      <trkpt lat="42.53718" lon="8.754">
        <ele>175.577881</ele>
        <time>2014-06-29T10:18:10Z</time>
      </trkpt>
      <trkpt lat="42.53716" lon="8.7541">
        <ele>176.058594</ele>
        <time>2014-06-29T10:18:18Z</time>
      </trkpt>
      <trkpt lat="42.53716" lon="8.75417">
        <ele>175.09729</ele>
        <time>2014-06-29T10:18:24Z</time>
      </trkpt>
      <trkpt lat="42.53716" lon="8.75419">
        <ele>174.135864</ele>
        <time>2014-06-29T10:18:26Z</time>
      </trkpt>
      <trkpt lat="42.53721" lon="8.75431">
        <ele>173.174683</ele>
        <time>2014-06-29T10:18:40Z</time>
      </trkpt>
      <trkpt lat="42.53722" lon="8.75433">
        <ele>173.174683</ele>
        <time>2014-06-29T10:18:43Z</time>
      </trkpt>
      <trkpt lat="42.53724" lon="8.75448">
        <ele>172.69397</ele>
        <time>2014-06-29T10:18:57Z</time>
      </trkpt>
      <trkpt lat="42.53724" lon="8.75452">
        <ele>171.252075</ele>
        <time>2014-06-29T10:19:03Z</time>
      </trkpt>
      <trkpt lat="42.53725" lon="8.75461">
        <ele>169.329468</ele>
        <time>2014-06-29T10:19:16Z</time>
      </trkpt>
      <trkpt lat="42.53731" lon="8.75459">
        <ele>166.926025</ele>
        <time>2014-06-29T10:19:30Z</time>
      </trkpt>
      <trkpt lat="42.53732" lon="8.75462">
        <ele>165.484131</ele>
        <time>2014-06-29T10:19:47Z</time>
      </trkpt>
      <trkpt lat="42.53733" lon="8.75467">
        <ele>164.042114</ele>
        <time>2014-06-29T10:20:02Z</time>
      </trkpt>
      <trkpt lat="42.53738" lon="8.75475">
        <ele>161.638916</ele>
        <time>2014-06-29T10:20:15Z</time>
      </trkpt>
      <trkpt lat="42.53742" lon="8.7548">
        <ele>160.196899</ele>
        <time>2014-06-29T10:20:24Z</time>
      </trkpt>
      <trkpt lat="42.53745" lon="8.75486">
        <ele>159.235474</ele>
        <time>2014-06-29T10:20:32Z</time>
      </trkpt>
      <trkpt lat="42.53752" lon="8.75496">
        <ele>158.27417</ele>
        <time>2014-06-29T10:20:45Z</time>
      </trkpt>
      <trkpt lat="42.53756" lon="8.75507">
        <ele>159.716187</ele>
        <time>2014-06-29T10:20:58Z</time>
      </trkpt>
      <trkpt lat="42.53757" lon="8.75508">
        <ele>159.716187</ele>
        <time>2014-06-29T10:20:59Z</time>
      </trkpt>
      <trkpt lat="42.53758" lon="8.7551">
        <ele>159.716187</ele>
        <time>2014-06-29T10:21:01Z</time>
      </trkpt>
      <trkpt lat="42.53762" lon="8.7552">
        <ele>158.754761</ele>
        <time>2014-06-29T10:21:15Z</time>
      </trkpt>
      <trkpt lat="42.53764" lon="8.75523">
        <ele>158.754761</ele>
        <time>2014-06-29T10:21:18Z</time>
      </trkpt>
      <trkpt lat="42.53769" lon="8.75536">
        <ele>158.754761</ele>
        <time>2014-06-29T10:21:33Z</time>
      </trkpt>
      <trkpt lat="42.53776" lon="8.75539">
        <ele>156.351563</ele>
        <time>2014-06-29T10:21:48Z</time>
      </trkpt>
      <trkpt lat="42.53775" lon="8.75549">
        <ele>157.793579</ele>
        <time>2014-06-29T10:21:57Z</time>
      </trkpt>
      <trkpt lat="42.53777" lon="8.75554">
        <ele>157.312866</ele>
        <time>2014-06-29T10:22:01Z</time>
      </trkpt>
      <trkpt lat="42.53776" lon="8.75565">
        <ele>157.312866</ele>
        <time>2014-06-29T10:22:12Z</time>
      </trkpt>
      <trkpt lat="42.53767" lon="8.75584">
        <ele>155.870972</ele>
        <time>2014-06-29T10:22:29Z</time>
      </trkpt>
      <trkpt lat="42.53764" lon="8.75588">
        <ele>157.312866</ele>
        <time>2014-06-29T10:22:34Z</time>
      </trkpt>
      <trkpt lat="42.53765" lon="8.75603">
        <ele>155.390259</ele>
        <time>2014-06-29T10:22:47Z</time>
      </trkpt>
      <trkpt lat="42.53766" lon="8.75609">
        <ele>154.428955</ele>
        <time>2014-06-29T10:22:52Z</time>
      </trkpt>
      <trkpt lat="42.53768" lon="8.75615">
        <ele>154.428955</ele>
        <time>2014-06-29T10:22:57Z</time>
      </trkpt>
      <trkpt lat="42.53768" lon="8.75631">
        <ele>154.909546</ele>
        <time>2014-06-29T10:23:11Z</time>
      </trkpt>
      <trkpt lat="42.53774" lon="8.75639">
        <ele>152.986938</ele>
        <time>2014-06-29T10:23:26Z</time>
      </trkpt>
      <trkpt lat="42.53774" lon="8.75628">
        <ele>150.583618</ele>
        <time>2014-06-29T10:23:43Z</time>
      </trkpt>
      <trkpt lat="42.53781" lon="8.75629">
        <ele>148.18042</ele>
        <time>2014-06-29T10:23:58Z</time>
      </trkpt>
      <trkpt lat="42.53789" lon="8.75643">
        <ele>146.257813</ele>
        <time>2014-06-29T10:24:15Z</time>
      </trkpt>
      <trkpt lat="42.53794" lon="8.75648">
        <ele>144.815796</ele>
        <time>2014-06-29T10:24:34Z</time>
      </trkpt>
      <trkpt lat="42.53799" lon="8.75655">
        <ele>142.893066</ele>
        <time>2014-06-29T10:25:00Z</time>
      </trkpt>
      <trkpt lat="42.53806" lon="8.75663">
        <ele>140.009155</ele>
        <time>2014-06-29T10:25:13Z</time>
      </trkpt>
      <trkpt lat="42.53814" lon="8.75672">
        <ele>136.644653</ele>
        <time>2014-06-29T10:25:27Z</time>
      </trkpt>
      <trkpt lat="42.53822" lon="8.7568">
        <ele>133.760498</ele>
        <time>2014-06-29T10:25:44Z</time>
      </trkpt>
      <trkpt lat="42.53825" lon="8.75676">
        <ele>132.799316</ele>
        <time>2014-06-29T10:25:49Z</time>
      </trkpt>
      <trkpt lat="42.53826" lon="8.75667">
        <ele>132.318604</ele>
        <time>2014-06-29T10:25:56Z</time>
      </trkpt>
      <trkpt lat="42.53828" lon="8.75651">
        <ele>130.395996</ele>
        <time>2014-06-29T10:26:14Z</time>
      </trkpt>
      <trkpt lat="42.53833" lon="8.7564">
        <ele>127.031372</ele>
        <time>2014-06-29T10:26:31Z</time>
      </trkpt>
      <trkpt lat="42.53838" lon="8.75635">
        <ele>125.589355</ele>
        <time>2014-06-29T10:26:47Z</time>
      </trkpt>
      <trkpt lat="42.53843" lon="8.7563">
        <ele>124.147339</ele>
        <time>2014-06-29T10:27:02Z</time>
      </trkpt>
      <trkpt lat="42.5385" lon="8.75624">
        <ele>123.666748</ele>
        <time>2014-06-29T10:27:15Z</time>
      </trkpt>
      <trkpt lat="42.53858" lon="8.7562">
        <ele>121.744141</ele>
        <time>2014-06-29T10:27:28Z</time>
      </trkpt>
      <trkpt lat="42.53868" lon="8.75613">
        <ele>118.860107</ele>
        <time>2014-06-29T10:27:43Z</time>
      </trkpt>
      <trkpt lat="42.53878" lon="8.75609">
        <ele>116.456787</ele>
        <time>2014-06-29T10:28:01Z</time>
      </trkpt>
      <trkpt lat="42.53891" lon="8.75605">
        <ele>114.53418</ele>
        <time>2014-06-29T10:28:18Z</time>
      </trkpt>
      <trkpt lat="42.53898" lon="8.75606">
        <ele>113.092285</ele>
        <time>2014-06-29T10:28:29Z</time>
      </trkpt>
      <trkpt lat="42.53907" lon="8.75604">
        <ele>111.650269</ele>
        <time>2014-06-29T10:28:44Z</time>
      </trkpt>
      <trkpt lat="42.53917" lon="8.75606">
        <ele>109.727661</ele>
        <time>2014-06-29T10:28:58Z</time>
      </trkpt>
      <trkpt lat="42.53926" lon="8.75612">
        <ele>108.285645</ele>
        <time>2014-06-29T10:29:13Z</time>
      </trkpt>
      <trkpt lat="42.53939" lon="8.75621">
        <ele>105.882446</ele>
        <time>2014-06-29T10:29:30Z</time>
      </trkpt>
      <trkpt lat="42.53939" lon="8.75622">
        <ele>106.363037</ele>
        <time>2014-06-29T10:29:43Z</time>
      </trkpt>
      <trkpt lat="42.53938" lon="8.75621">
        <ele>106.843628</ele>
        <time>2014-06-29T10:30:35Z</time>
      </trkpt>
      <trkpt lat="42.53938" lon="8.75621">
        <ele>106.363037</ele>
        <time>2014-06-29T10:30:59Z</time>
      </trkpt>
      <trkpt lat="42.53945" lon="8.75624">
        <ele>104.921021</ele>
        <time>2014-06-29T10:31:10Z</time>
      </trkpt>
      <trkpt lat="42.53955" lon="8.7563">
        <ele>103.479004</ele>
        <time>2014-06-29T10:31:27Z</time>
      </trkpt>
      <trkpt lat="42.53963" lon="8.75629">
        <ele>102.037109</ele>
        <time>2014-06-29T10:31:35Z</time>
      </trkpt>
      <trkpt lat="42.53977" lon="8.7563">
        <ele>99.633789</ele>
        <time>2014-06-29T10:31:50Z</time>
      </trkpt>
      <trkpt lat="42.53985" lon="8.75632">
        <ele>98.191895</ele>
        <time>2014-06-29T10:32:07Z</time>
      </trkpt>
      <trkpt lat="42.53996" lon="8.75634">
        <ele>97.230469</ele>
        <time>2014-06-29T10:32:20Z</time>
      </trkpt>
      <trkpt lat="42.54003" lon="8.75637">
        <ele>95.307739</ele>
        <time>2014-06-29T10:32:28Z</time>
      </trkpt>
      <trkpt lat="42.54024" lon="8.75639">
        <ele>92.904541</ele>
        <time>2014-06-29T10:32:46Z</time>
      </trkpt>
      <trkpt lat="42.54049" lon="8.75633">
        <ele>90.501343</ele>
        <time>2014-06-29T10:33:09Z</time>
      </trkpt>
      <trkpt lat="42.54055" lon="8.75611">
        <ele>87.136597</ele>
        <time>2014-06-29T10:33:25Z</time>
      </trkpt>
      <trkpt lat="42.54071" lon="8.75585">
        <ele>90.501343</ele>
        <time>2014-06-29T10:33:44Z</time>
      </trkpt>
      <trkpt lat="42.54084" lon="8.75562">
        <ele>91.462524</ele>
        <time>2014-06-29T10:34:01Z</time>
      </trkpt>
      <trkpt lat="42.54104" lon="8.75535">
        <ele>90.501343</ele>
        <time>2014-06-29T10:34:23Z</time>
      </trkpt>
      <trkpt lat="42.54106" lon="8.7553">
        <ele>89.059326</ele>
        <time>2014-06-29T10:34:26Z</time>
      </trkpt>
      <trkpt lat="42.54109" lon="8.75527">
        <ele>88.578735</ele>
        <time>2014-06-29T10:34:29Z</time>
      </trkpt>
      <trkpt lat="42.54117" lon="8.75516">
        <ele>87.617188</ele>
        <time>2014-06-29T10:34:37Z</time>
      </trkpt>
      <trkpt lat="42.54151" lon="8.75514">
        <ele>84.733398</ele>
        <time>2014-06-29T10:35:02Z</time>
      </trkpt>
      <trkpt lat="42.54182" lon="8.75528">
        <ele>82.810791</ele>
        <time>2014-06-29T10:35:28Z</time>
      </trkpt>
      <trkpt lat="42.54187" lon="8.75533">
        <ele>81.849365</ele>
        <time>2014-06-29T10:35:35Z</time>
      </trkpt>
      <trkpt lat="42.54206" lon="8.7555">
        <ele>80.407471</ele>
        <time>2014-06-29T10:35:53Z</time>
      </trkpt>
      <trkpt lat="42.54232" lon="8.75567">
        <ele>77.523438</ele>
        <time>2014-06-29T10:36:15Z</time>
      </trkpt>
      <trkpt lat="42.54253" lon="8.7558">
        <ele>74.639526</ele>
        <time>2014-06-29T10:36:34Z</time>
      </trkpt>
      <trkpt lat="42.54269" lon="8.75589">
        <ele>72.716919</ele>
        <time>2014-06-29T10:36:48Z</time>
      </trkpt>
      <trkpt lat="42.54279" lon="8.75598">
        <ele>70.313477</ele>
        <time>2014-06-29T10:36:58Z</time>
      </trkpt>
      <trkpt lat="42.54282" lon="8.756">
        <ele>69.352295</ele>
        <time>2014-06-29T10:37:01Z</time>
      </trkpt>
      <trkpt lat="42.54286" lon="8.75603">
        <ele>69.352295</ele>
        <time>2014-06-29T10:37:04Z</time>
      </trkpt>
      <trkpt lat="42.54291" lon="8.75607">
        <ele>68.390869</ele>
        <time>2014-06-29T10:37:09Z</time>
      </trkpt>
      <trkpt lat="42.54313" lon="8.75625">
        <ele>66.468262</ele>
        <time>2014-06-29T10:37:31Z</time>
      </trkpt>
      <trkpt lat="42.54319" lon="8.75627">
        <ele>63.584351</ele>
        <time>2014-06-29T10:37:37Z</time>
      </trkpt>
      <trkpt lat="42.54324" lon="8.75632">
        <ele>62.622925</ele>
        <time>2014-06-29T10:37:43Z</time>
      </trkpt>
      <trkpt lat="42.54328" lon="8.75654">
        <ele>60.219727</ele>
        <time>2014-06-29T10:37:57Z</time>
      </trkpt>
      <trkpt lat="42.54322" lon="8.7569">
        <ele>59.739136</ele>
        <time>2014-06-29T10:38:17Z</time>
      </trkpt>
      <trkpt lat="42.54323" lon="8.75699">
        <ele>59.739136</ele>
        <time>2014-06-29T10:38:22Z</time>
      </trkpt>
      <trkpt lat="42.54324" lon="8.75705">
        <ele>61.18103</ele>
        <time>2014-06-29T10:38:26Z</time>
      </trkpt>
      <trkpt lat="42.54329" lon="8.75726">
        <ele>62.142334</ele>
        <time>2014-06-29T10:38:40Z</time>
      </trkpt>
      <trkpt lat="42.54339" lon="8.75756">
        <ele>62.622925</ele>
        <time>2014-06-29T10:39:01Z</time>
      </trkpt>
      <trkpt lat="42.54358" lon="8.75756">
        <ele>60.700317</ele>
        <time>2014-06-29T10:39:16Z</time>
      </trkpt>
      <trkpt lat="42.54389" lon="8.75763">
        <ele>58.77771</ele>
        <time>2014-06-29T10:39:41Z</time>
      </trkpt>
      <trkpt lat="42.54417" lon="8.75772">
        <ele>57.816528</ele>
        <time>2014-06-29T10:40:03Z</time>
      </trkpt>
      <trkpt lat="42.54444" lon="8.75771">
        <ele>55.893799</ele>
        <time>2014-06-29T10:40:24Z</time>
      </trkpt>
      <trkpt lat="42.54473" lon="8.75768">
        <ele>53.490479</ele>
        <time>2014-06-29T10:40:46Z</time>
      </trkpt>
      <trkpt lat="42.54505" lon="8.75776">
        <ele>51.087158</ele>
        <time>2014-06-29T10:41:11Z</time>
      </trkpt>
      <trkpt lat="42.54528" lon="8.75781">
        <ele>49.164551</ele>
        <time>2014-06-29T10:41:30Z</time>
      </trkpt>
      <trkpt lat="42.54558" lon="8.75782">
        <ele>46.76123</ele>
        <time>2014-06-29T10:41:52Z</time>
      </trkpt>
      <trkpt lat="42.54573" lon="8.75778">
        <ele>46.28064</ele>
        <time>2014-06-29T10:42:04Z</time>
      </trkpt>
      <trkpt lat="42.54596" lon="8.75791">
        <ele>44.838623</ele>
        <time>2014-06-29T10:42:21Z</time>
      </trkpt>
      <trkpt lat="42.54617" lon="8.75805">
        <ele>44.838623</ele>
        <time>2014-06-29T10:42:39Z</time>
      </trkpt>
      <trkpt lat="42.54641" lon="8.75817">
        <ele>43.396606</ele>
        <time>2014-06-29T10:42:59Z</time>
      </trkpt>
      <trkpt lat="42.54669" lon="8.75812">
        <ele>42.435425</ele>
        <time>2014-06-29T10:43:20Z</time>
      </trkpt>
      <trkpt lat="42.5468" lon="8.75809">
        <ele>41.954712</ele>
        <time>2014-06-29T10:43:40Z</time>
      </trkpt>
      <trkpt lat="42.54697" lon="8.75804">
        <ele>40.512817</ele>
        <time>2014-06-29T10:43:54Z</time>
      </trkpt>
      <trkpt lat="42.54707" lon="8.75806">
        <ele>39.55127</ele>
        <time>2014-06-29T10:44:10Z</time>
      </trkpt>
      <trkpt lat="42.54722" lon="8.75803">
        <ele>39.070679</ele>
        <time>2014-06-29T10:44:33Z</time>
      </trkpt>
      <trkpt lat="42.54759" lon="8.758">
        <ele>38.109375</ele>
        <time>2014-06-29T10:45:01Z</time>
      </trkpt>
      <trkpt lat="42.54788" lon="8.75798">
        <ele>36.66748</ele>
        <time>2014-06-29T10:45:23Z</time>
      </trkpt>
      <trkpt lat="42.54816" lon="8.75798">
        <ele>35.706055</ele>
        <time>2014-06-29T10:45:45Z</time>
      </trkpt>
      <trkpt lat="42.54841" lon="8.75794">
        <ele>35.225464</ele>
        <time>2014-06-29T10:46:04Z</time>
      </trkpt>
      <trkpt lat="42.54868" lon="8.75796">
        <ele>33.302856</ele>
        <time>2014-06-29T10:46:26Z</time>
      </trkpt>
      <trkpt lat="42.54887" lon="8.75796">
        <ele>32.822266</ele>
        <time>2014-06-29T10:46:42Z</time>
      </trkpt>
      <trkpt lat="42.54914" lon="8.75801">
        <ele>32.822266</ele>
        <time>2014-06-29T10:47:02Z</time>
      </trkpt>
      <trkpt lat="42.54939" lon="8.75805">
        <ele>31.380127</ele>
        <time>2014-06-29T10:47:21Z</time>
      </trkpt>
      <trkpt lat="42.54973" lon="8.75814">
        <ele>28.496216</ele>
        <time>2014-06-29T10:47:46Z</time>
      </trkpt>
      <trkpt lat="42.55006" lon="8.75815">
        <ele>27.534912</ele>
        <time>2014-06-29T10:48:11Z</time>
      </trkpt>
      <trkpt lat="42.55024" lon="8.75801">
        <ele>26.573608</ele>
        <time>2014-06-29T10:48:28Z</time>
      </trkpt>
      <trkpt lat="42.55037" lon="8.75773">
        <ele>24.651001</ele>
        <time>2014-06-29T10:48:46Z</time>
      </trkpt>
      <trkpt lat="42.55048" lon="8.75749">
        <ele>23.208984</ele>
        <time>2014-06-29T10:49:03Z</time>
      </trkpt>
      <trkpt lat="42.55068" lon="8.7572">
        <ele>21.286377</ele>
        <time>2014-06-29T10:49:25Z</time>
      </trkpt>
      <trkpt lat="42.55076" lon="8.75708">
        <ele>20.324951</ele>
        <time>2014-06-29T10:49:34Z</time>
      </trkpt>
      <trkpt lat="42.55092" lon="8.75683">
        <ele>19.36377</ele>
        <time>2014-06-29T10:49:52Z</time>
      </trkpt>
      <trkpt lat="42.55106" lon="8.75666">
        <ele>20.324951</ele>
        <time>2014-06-29T10:50:13Z</time>
      </trkpt>
      <trkpt lat="42.55108" lon="8.75664">
        <ele>20.805664</ele>
        <time>2014-06-29T10:50:28Z</time>
      </trkpt>
      <trkpt lat="42.55122" lon="8.75655">
        <ele>20.805664</ele>
        <time>2014-06-29T10:50:46Z</time>
      </trkpt>
      <trkpt lat="42.5514" lon="8.75657">
        <ele>21.286377</ele>
        <time>2014-06-29T10:51:00Z</time>
      </trkpt>
      <trkpt lat="42.5515" lon="8.7566">
        <ele>21.286377</ele>
        <time>2014-06-29T10:51:15Z</time>
      </trkpt>
      <trkpt lat="42.55153" lon="8.75657">
        <ele>20.324951</ele>
        <time>2014-06-29T10:51:19Z</time>
      </trkpt>
      <trkpt lat="42.55186" lon="8.75656">
        <ele>20.324951</ele>
        <time>2014-06-29T10:51:43Z</time>
      </trkpt>
      <trkpt lat="42.5522" lon="8.75655">
        <ele>18.402344</ele>
        <time>2014-06-29T10:52:08Z</time>
      </trkpt>
      <trkpt lat="42.5524" lon="8.75651">
        <ele>17.441162</ele>
        <time>2014-06-29T10:52:24Z</time>
      </trkpt>
      <trkpt lat="42.55243" lon="8.75655">
        <ele>17.441162</ele>
        <time>2014-06-29T10:52:40Z</time>
      </trkpt>
      <trkpt lat="42.55249" lon="8.75645">
        <ele>17.441162</ele>
        <time>2014-06-29T10:52:54Z</time>
      </trkpt>
      <trkpt lat="42.55226" lon="8.7563">
        <ele>18.402344</ele>
        <time>2014-06-29T10:53:14Z</time>
      </trkpt>
      <trkpt lat="42.55222" lon="8.75614">
        <ele>18.883057</ele>
        <time>2014-06-29T10:53:26Z</time>
      </trkpt>
      <trkpt lat="42.55214" lon="8.75601">
        <ele>18.883057</ele>
        <time>2014-06-29T10:53:37Z</time>
      </trkpt>
      <trkpt lat="42.55197" lon="8.75589">
        <ele>18.883057</ele>
        <time>2014-06-29T10:53:53Z</time>
      </trkpt>
      <trkpt lat="42.55184" lon="8.75576">
        <ele>19.36377</ele>
        <time>2014-06-29T10:54:09Z</time>
      </trkpt>
      <trkpt lat="42.55173" lon="8.75574">
        <ele>20.324951</ele>
        <time>2014-06-29T10:54:25Z</time>
      </trkpt>
      <trkpt lat="42.55172" lon="8.75574">
        <ele>20.324951</ele>
        <time>2014-06-29T10:54:29Z</time>
      </trkpt>
    </trkseg>
  </trk>
</gpx>